﻿<?xml version="1.0" encoding="utf-8"?><gpx creator="Garmin Desktop App" version="1.1" xsi:schemaLocation="http://www.topografix.com/GPX/1/1 http://www.topografix.com/GPX/1/1/gpx.xsd http://www.garmin.com/xmlschemas/WaypointExtension/v1 http://www8.garmin.com/xmlschemas/WaypointExtensionv1.xsd http://www.garmin.com/xmlschemas/TrackPointExtension/v1 http://www.garmin.com/xmlschemas/TrackPointExtensionv1.xsd http://www.garmin.com/xmlschemas/GpxExtensions/v3 http://www8.garmin.com/xmlschemas/GpxExtensionsv3.xsd http://www.garmin.com/xmlschemas/ActivityExtension/v1 http://www8.garmin.com/xmlschemas/ActivityExtensionv1.xsd http://www.garmin.com/xmlschemas/AdventuresExtensions/v1 http://www8.garmin.com/xmlschemas/AdventuresExtensionv1.xsd http://www.garmin.com/xmlschemas/PressureExtension/v1 http://www.garmin.com/xmlschemas/PressureExtensionv1.xsd http://www.garmin.com/xmlschemas/TripExtensions/v1 http://www.garmin.com/xmlschemas/TripExtensionsv1.xsd http://www.garmin.com/xmlschemas/TripMetaDataExtensions/v1 http://www.garmin.com/xmlschemas/TripMetaDataExtensionsv1.xsd http://www.garmin.com/xmlschemas/ViaPointTransportationModeExtensions/v1 http://www.garmin.com/xmlschemas/ViaPointTransportationModeExtensionsv1.xsd http://www.garmin.com/xmlschemas/CreationTimeExtension/v1 http://www.garmin.com/xmlschemas/CreationTimeExtensionsv1.xsd http://www.garmin.com/xmlschemas/AccelerationExtension/v1 http://www.garmin.com/xmlschemas/AccelerationExtensionv1.xsd http://www.garmin.com/xmlschemas/PowerExtension/v1 http://www.garmin.com/xmlschemas/PowerExtensionv1.xsd http://www.garmin.com/xmlschemas/VideoExtension/v1 http://www.garmin.com/xmlschemas/VideoExtensionv1.xsd" xmlns="http://www.topografix.com/GPX/1/1" xmlns:xsi="http://www.w3.org/2001/XMLSchema-instance" xmlns:wptx1="http://www.garmin.com/xmlschemas/WaypointExtension/v1" xmlns:gpxtrx="http://www.garmin.com/xmlschemas/GpxExtensions/v3" xmlns:gpxtpx="http://www.garmin.com/xmlschemas/TrackPointExtension/v1" xmlns:gpxx="http://www.garmin.com/xmlschemas/GpxExtensions/v3" xmlns:trp="http://www.garmin.com/xmlschemas/TripExtensions/v1" xmlns:adv="http://www.garmin.com/xmlschemas/AdventuresExtensions/v1" xmlns:prs="http://www.garmin.com/xmlschemas/PressureExtension/v1" xmlns:tmd="http://www.garmin.com/xmlschemas/TripMetaDataExtensions/v1" xmlns:vptm="http://www.garmin.com/xmlschemas/ViaPointTransportationModeExtensions/v1" xmlns:ctx="http://www.garmin.com/xmlschemas/CreationTimeExtension/v1" xmlns:gpxacc="http://www.garmin.com/xmlschemas/AccelerationExtension/v1" xmlns:gpxpx="http://www.garmin.com/xmlschemas/PowerExtension/v1" xmlns:vidx1="http://www.garmin.com/xmlschemas/VideoExtension/v1">

  <metadata>
    <link href="http://www.garmin.com">
      <text>Garmin International</text>
    </link>
    <time>2021-08-04T14:09:40Z</time>
    <bounds maxlat="50.548804309219122" maxlon="6.284447740763426" minlat="50.523521387949586" minlon="6.193335866555572" />
  </metadata>

  <trk>
    <name>Ruitzhof  Drôfterhof 15 km</name>
    <extensions>
      <gpxx:TrackExtension>
        <gpxx:DisplayColor>Red</gpxx:DisplayColor>
      </gpxx:TrackExtension>
    </extensions>
    <trkseg>
      <trkpt lat="50.546213127672672" lon="6.284447740763426">
        <ele>555.47000000000003</ele>
        <time>2019-04-26T07:33:10Z</time>
      </trkpt>
      <trkpt lat="50.54647346958518" lon="6.284384038299322" />
      <trkpt lat="50.546199213713408" lon="6.284443465992808">
        <ele>555.48000000000002</ele>
        <time>2019-04-26T07:33:11Z</time>
      </trkpt>
      <trkpt lat="50.546162752434611" lon="6.284412117674947">
        <ele>553.07000000000005</ele>
        <time>2019-04-26T07:33:15Z</time>
      </trkpt>
      <trkpt lat="50.545904086902738" lon="6.284327711910009">
        <ele>555.24000000000001</ele>
        <time>2019-04-26T07:33:35Z</time>
      </trkpt>
      <trkpt lat="50.545789338648319" lon="6.284283874556422">
        <ele>555.13</ele>
        <time>2019-04-26T07:33:47Z</time>
      </trkpt>
      <trkpt lat="50.54575421847403" lon="6.284294435754418">
        <ele>552.13</ele>
        <time>2019-04-26T07:33:54Z</time>
      </trkpt>
      <trkpt lat="50.545736532658339" lon="6.284292005002499">
        <ele>556.63</ele>
        <time>2019-04-26T07:33:55Z</time>
      </trkpt>
      <trkpt lat="50.545546934008598" lon="6.284267446026206">
        <ele>556.73000000000002</ele>
        <time>2019-04-26T07:34:08Z</time>
      </trkpt>
      <trkpt lat="50.545516423881054" lon="6.284249257296324">
        <ele>556.76999999999998</ele>
        <time>2019-04-26T07:34:11Z</time>
      </trkpt>
      <trkpt lat="50.54533738642931" lon="6.284229895099998">
        <ele>556.72000000000003</ele>
        <time>2019-04-26T07:34:25Z</time>
      </trkpt>
      <trkpt lat="50.54507989436388" lon="6.28415915183723">
        <ele>556.69000000000005</ele>
        <time>2019-04-26T07:34:45Z</time>
      </trkpt>
      <trkpt lat="50.544860204681754" lon="6.284088157117367">
        <ele>556.65999999999997</ele>
        <time>2019-04-26T07:35:02Z</time>
      </trkpt>
      <trkpt lat="50.544794658198953" lon="6.283969637006521">
        <ele>556.63999999999999</ele>
        <time>2019-04-26T07:35:10Z</time>
      </trkpt>
      <trkpt lat="50.544707234948874" lon="6.283554565161467">
        <ele>556.69000000000005</ele>
        <time>2019-04-26T07:35:30Z</time>
      </trkpt>
      <trkpt lat="50.544698350131512" lon="6.283501172438264">
        <ele>556.67999999999995</ele>
        <time>2019-04-26T07:35:33Z</time>
      </trkpt>
      <trkpt lat="50.544702792540193" lon="6.283063134178519">
        <ele>556.82000000000005</ele>
        <time>2019-04-26T07:36:23Z</time>
      </trkpt>
      <trkpt lat="50.544760543853045" lon="6.282926592975855">
        <ele>556.79999999999995</ele>
        <time>2019-04-26T07:36:40Z</time>
      </trkpt>
      <trkpt lat="50.544773619621992" lon="6.282918630167842">
        <ele>556.80999999999995</ele>
        <time>2019-04-26T07:36:46Z</time>
      </trkpt>
      <trkpt lat="50.544855259358883" lon="6.282627359032631">
        <ele>556.79999999999995</ele>
        <time>2019-04-26T07:37:03Z</time>
      </trkpt>
      <trkpt lat="50.544918207451701" lon="6.282457876950502">
        <ele>554.32000000000005</ele>
        <time>2019-04-26T07:37:16Z</time>
      </trkpt>
      <trkpt lat="50.54492399096489" lon="6.282444633543491">
        <ele>554.33000000000004</ele>
        <time>2019-04-26T07:37:17Z</time>
      </trkpt>
      <trkpt lat="50.545006468892097" lon="6.282221591100097">
        <ele>552.79999999999995</ele>
        <time>2019-04-26T07:37:31Z</time>
      </trkpt>
      <trkpt lat="50.545059191063046" lon="6.282056467607617">
        <ele>551.88</ele>
        <time>2019-04-26T07:37:41Z</time>
      </trkpt>
      <trkpt lat="50.545201431959867" lon="6.281907772645354">
        <ele>549.22000000000003</ele>
        <time>2019-04-26T07:37:57Z</time>
      </trkpt>
      <trkpt lat="50.545252729207277" lon="6.281823283061385">
        <ele>548.36000000000001</ele>
        <time>2019-04-26T07:38:04Z</time>
      </trkpt>
      <trkpt lat="50.54540678858757" lon="6.281709875911474">
        <ele>546.41999999999996</ele>
        <time>2019-04-26T07:38:20Z</time>
      </trkpt>
      <trkpt lat="50.545557159930468" lon="6.281728064641357">
        <ele>544.58000000000004</ele>
        <time>2019-04-26T07:38:34Z</time>
      </trkpt>
      <trkpt lat="50.54572538472712" lon="6.281738206744194">
        <ele>543.63999999999999</ele>
        <time>2019-04-26T07:38:47Z</time>
      </trkpt>
      <trkpt lat="50.545903835445642" lon="6.281798724085093">
        <ele>542.67999999999995</ele>
        <time>2019-04-26T07:39:03Z</time>
      </trkpt>
      <trkpt lat="50.546075915917754" lon="6.281924452632666">
        <ele>541.84000000000003</ele>
        <time>2019-04-26T07:39:17Z</time>
      </trkpt>
      <trkpt lat="50.546282278373837" lon="6.282041799277067">
        <ele>541.78999999999996</ele>
        <time>2019-04-26T07:39:32Z</time>
      </trkpt>
      <trkpt lat="50.546460645273328" lon="6.282127797603607">
        <ele>541</ele>
        <time>2019-04-26T07:39:47Z</time>
      </trkpt>
      <trkpt lat="50.5466503277421" lon="6.282140119001269">
        <ele>540.95000000000005</ele>
        <time>2019-04-26T07:40:02Z</time>
      </trkpt>
      <trkpt lat="50.546849314123392" lon="6.282126121222973">
        <ele>540.88999999999999</ele>
        <time>2019-04-26T07:40:15Z</time>
      </trkpt>
      <trkpt lat="50.547019382938743" lon="6.282067866995931">
        <ele>540.86000000000001</ele>
        <time>2019-04-26T07:40:30Z</time>
      </trkpt>
      <trkpt lat="50.546987364068627" lon="6.281850272789598">
        <ele>540.73000000000002</ele>
        <time>2019-04-26T07:40:44Z</time>
      </trkpt>
      <trkpt lat="50.546892313286662" lon="6.281617842614651">
        <ele>539.55999999999995</ele>
        <time>2019-04-26T07:41:02Z</time>
      </trkpt>
      <trkpt lat="50.546835148707032" lon="6.281357584521174">
        <ele>537.78999999999996</ele>
        <time>2019-04-26T07:41:17Z</time>
      </trkpt>
      <trkpt lat="50.546781755983829" lon="6.281123477965593">
        <ele>536.96000000000004</ele>
        <time>2019-04-26T07:41:28Z</time>
      </trkpt>
      <trkpt lat="50.546763734892011" lon="6.280963132157922">
        <ele>536.94000000000005</ele>
        <time>2019-04-26T07:41:38Z</time>
      </trkpt>
      <trkpt lat="50.546733727678657" lon="6.280600111931562">
        <ele>536.01999999999998</ele>
        <time>2019-04-26T07:41:55Z</time>
      </trkpt>
      <trkpt lat="50.546724926680326" lon="6.280525429174304">
        <ele>535.16999999999996</ele>
        <time>2019-04-26T07:41:58Z</time>
      </trkpt>
      <trkpt lat="50.546665079891682" lon="6.280186716467142">
        <ele>534.25999999999999</ele>
        <time>2019-04-26T07:42:15Z</time>
      </trkpt>
      <trkpt lat="50.54666449315846" lon="6.28016316331923">
        <ele>534.25999999999999</ele>
        <time>2019-04-26T07:42:16Z</time>
      </trkpt>
      <trkpt lat="50.546611687168479" lon="6.279797879979014">
        <ele>532.34000000000003</ele>
        <time>2019-04-26T07:42:35Z</time>
      </trkpt>
      <trkpt lat="50.546499788761139" lon="6.279485821723938">
        <ele>531.49000000000001</ele>
        <time>2019-04-26T07:42:50Z</time>
      </trkpt>
      <trkpt lat="50.546463076025248" lon="6.279391441494227">
        <ele>530.64999999999998</ele>
        <time>2019-04-26T07:42:55Z</time>
      </trkpt>
      <trkpt lat="50.546402307227254" lon="6.279247356578708">
        <ele>529.84000000000003</ele>
        <time>2019-04-26T07:43:02Z</time>
      </trkpt>
      <trkpt lat="50.546363750472665" lon="6.27899531275034">
        <ele>527.25999999999999</ele>
        <time>2019-04-26T07:43:19Z</time>
      </trkpt>
      <trkpt lat="50.546272136271" lon="6.278711501508951">
        <ele>524.49000000000001</ele>
        <time>2019-04-26T07:43:37Z</time>
      </trkpt>
      <trkpt lat="50.546249756589532" lon="6.278654420748353">
        <ele>523.71000000000004</ele>
        <time>2019-04-26T07:43:40Z</time>
      </trkpt>
      <trkpt lat="50.546060325577855" lon="6.2782824318856">
        <ele>520.25999999999999</ele>
        <time>2019-04-26T07:44:00Z</time>
      </trkpt>
      <trkpt lat="50.546019757166505" lon="6.278103142976761">
        <ele>518.63</ele>
        <time>2019-04-26T07:44:12Z</time>
      </trkpt>
      <trkpt lat="50.546020176261663" lon="6.278034662827849">
        <ele>518.60000000000002</ele>
        <time>2019-04-26T07:44:16Z</time>
      </trkpt>
      <trkpt lat="50.545994024723768" lon="6.277730986475945">
        <ele>517.61000000000001</ele>
        <time>2019-04-26T07:44:29Z</time>
      </trkpt>
      <trkpt lat="50.545975584536791" lon="6.277296971529722">
        <ele>514.97000000000003</ele>
        <time>2019-04-26T07:44:48Z</time>
      </trkpt>
      <trkpt lat="50.545944906771183" lon="6.277045598253608">
        <ele>511.25</ele>
        <time>2019-04-26T07:45:01Z</time>
      </trkpt>
      <trkpt lat="50.545907523483038" lon="6.276929508894682">
        <ele>506.45999999999998</ele>
        <time>2019-04-26T07:45:09Z</time>
      </trkpt>
      <trkpt lat="50.545869804918766" lon="6.276665395125747">
        <ele>506.38</ele>
        <time>2019-04-26T07:45:29Z</time>
      </trkpt>
      <trkpt lat="50.545866452157497" lon="6.276586856693029">
        <ele>504.07999999999998</ele>
        <time>2019-04-26T07:45:33Z</time>
      </trkpt>
      <trkpt lat="50.545918755233288" lon="6.276030214503408">
        <ele>494.88999999999999</ele>
        <time>2019-04-26T07:47:54Z</time>
      </trkpt>
      <trkpt lat="50.546044232323766" lon="6.275721676647663">
        <ele>489.73000000000002</ele>
        <time>2019-04-26T07:48:19Z</time>
      </trkpt>
      <trkpt lat="50.546176247298717" lon="6.275579771026969">
        <ele>487.14999999999998</ele>
        <time>2019-04-26T07:48:35Z</time>
      </trkpt>
      <trkpt lat="50.546326786279678" lon="6.275325799360871">
        <ele>483.70999999999998</ele>
        <time>2019-04-26T07:48:51Z</time>
      </trkpt>
      <trkpt lat="50.546428961679339" lon="6.275163609534502">
        <ele>479.76999999999998</ele>
        <time>2019-04-26T07:49:04Z</time>
      </trkpt>
      <trkpt lat="50.546476151794195" lon="6.275017512962222">
        <ele>478.27999999999997</ele>
        <time>2019-04-26T07:49:11Z</time>
      </trkpt>
      <trkpt lat="50.546589056029916" lon="6.274808719754219">
        <ele>474.47000000000003</ele>
        <time>2019-04-26T07:49:25Z</time>
      </trkpt>
      <trkpt lat="50.546648735180497" lon="6.274583414196968">
        <ele>471</ele>
        <time>2019-04-26T07:49:40Z</time>
      </trkpt>
      <trkpt lat="50.546653931960464" lon="6.2745575979352">
        <ele>470.98000000000002</ele>
        <time>2019-04-26T07:49:42Z</time>
      </trkpt>
      <trkpt lat="50.5467245914042" lon="6.274251407012343">
        <ele>469.22000000000003</ele>
        <time>2019-04-26T07:49:56Z</time>
      </trkpt>
      <trkpt lat="50.546858785673976" lon="6.273817056789994">
        <ele>466.57999999999998</ele>
        <time>2019-04-26T07:50:19Z</time>
      </trkpt>
      <trkpt lat="50.546930031850934" lon="6.273678168654442">
        <ele>463.06</ele>
        <time>2019-04-26T07:50:29Z</time>
      </trkpt>
      <trkpt lat="50.546945035457611" lon="6.27365855500102">
        <ele>461.60000000000002</ele>
        <time>2019-04-26T07:50:31Z</time>
      </trkpt>
      <trkpt lat="50.547162713482976" lon="6.273399386554956">
        <ele>460.63999999999999</ele>
        <time>2019-04-26T07:50:48Z</time>
      </trkpt>
      <trkpt lat="50.547228092327714" lon="6.273226970806718">
        <ele>459.76999999999998</ele>
        <time>2019-04-26T07:50:57Z</time>
      </trkpt>
      <trkpt lat="50.5474170204252" lon="6.272949110716581">
        <ele>457.19</ele>
        <time>2019-04-26T07:51:16Z</time>
      </trkpt>
      <trkpt lat="50.547558339312673" lon="6.272613583132625">
        <ele>453.69</ele>
        <time>2019-04-26T07:51:35Z</time>
      </trkpt>
      <trkpt lat="50.547706866636872" lon="6.272373357787728">
        <ele>450.98000000000002</ele>
        <time>2019-04-26T07:51:52Z</time>
      </trkpt>
      <trkpt lat="50.547805353999138" lon="6.272181076928973">
        <ele>450.02999999999997</ele>
        <time>2019-04-26T07:52:05Z</time>
      </trkpt>
      <trkpt lat="50.547999646514654" lon="6.272078650072217">
        <ele>449.19</ele>
        <time>2019-04-26T07:52:14Z</time>
      </trkpt>
      <trkpt lat="50.547767048701644" lon="6.27208074554801">
        <ele>446.48000000000002</ele>
        <time>2019-04-26T07:52:30Z</time>
      </trkpt>
      <trkpt lat="50.54760511033237" lon="6.272040596231818">
        <ele>441.74000000000001</ele>
        <time>2019-04-26T07:52:45Z</time>
      </trkpt>
      <trkpt lat="50.547473430633545" lon="6.272079488262534">
        <ele>438.08999999999997</ele>
        <time>2019-04-26T07:53:00Z</time>
      </trkpt>
      <trkpt lat="50.547419115900993" lon="6.272047637030482">
        <ele>434.82999999999998</ele>
        <time>2019-04-26T07:53:12Z</time>
      </trkpt>
      <trkpt lat="50.547424899414182" lon="6.272019809111953">
        <ele>434.82999999999998</ele>
        <time>2019-04-26T07:53:14Z</time>
      </trkpt>
      <trkpt lat="50.547420624643564" lon="6.271812273189426">
        <ele>431.24000000000001</ele>
        <time>2019-04-26T07:53:26Z</time>
      </trkpt>
      <trkpt lat="50.547451889142394" lon="6.27175334841013">
        <ele>430.56999999999999</ele>
        <time>2019-04-26T07:53:30Z</time>
      </trkpt>
      <trkpt lat="50.547465048730373" lon="6.271483786404133">
        <ele>427.01999999999998</ele>
        <time>2019-04-26T07:53:46Z</time>
      </trkpt>
      <trkpt lat="50.547446189448237" lon="6.271474733948708">
        <ele>426.16000000000003</ele>
        <time>2019-04-26T07:53:49Z</time>
      </trkpt>
      <trkpt lat="50.547272684052587" lon="6.271030995994806">
        <ele>431.05000000000001</ele>
        <time>2019-04-26T07:54:25Z</time>
      </trkpt>
      <trkpt lat="50.547265391796827" lon="6.271009286865592">
        <ele>431.01999999999998</ele>
        <time>2019-04-26T07:54:26Z</time>
      </trkpt>
      <trkpt lat="50.547134047374129" lon="6.27089386805892">
        <ele>435.00999999999999</ele>
        <time>2019-04-26T07:54:38Z</time>
      </trkpt>
      <trkpt lat="50.547126587480307" lon="6.270892862230539">
        <ele>435.04000000000002</ele>
        <time>2019-04-26T07:54:39Z</time>
      </trkpt>
      <trkpt lat="50.546996751800179" lon="6.270879535004497">
        <ele>438.60000000000002</ele>
        <time>2019-04-26T07:54:49Z</time>
      </trkpt>
      <trkpt lat="50.546872699633241" lon="6.2709104642272">
        <ele>440.39999999999998</ele>
        <time>2019-04-26T07:54:59Z</time>
      </trkpt>
      <trkpt lat="50.546802543103695" lon="6.270901663228869">
        <ele>443.18000000000001</ele>
        <time>2019-04-26T07:55:03Z</time>
      </trkpt>
      <trkpt lat="50.546721322461963" lon="6.270822202786803">
        <ele>445.13</ele>
        <time>2019-04-26T07:55:13Z</time>
      </trkpt>
      <trkpt lat="50.546552930027246" lon="6.270594717934728">
        <ele>445.01999999999998</ele>
        <time>2019-04-26T07:55:25Z</time>
      </trkpt>
      <trkpt lat="50.546344975009561" lon="6.270338483154774">
        <ele>445</ele>
        <time>2019-04-26T07:55:42Z</time>
      </trkpt>
      <trkpt lat="50.546129643917084" lon="6.269965823739767">
        <ele>444.97000000000003</ele>
        <time>2019-04-26T07:56:05Z</time>
      </trkpt>
      <trkpt lat="50.545961922034621" lon="6.269698441028595">
        <ele>444.94999999999999</ele>
        <time>2019-04-26T07:56:22Z</time>
      </trkpt>
      <trkpt lat="50.545850610360503" lon="6.269459389150143">
        <ele>444.98000000000002</ele>
        <time>2019-04-26T07:56:39Z</time>
      </trkpt>
      <trkpt lat="50.545828649774194" lon="6.269412869587541">
        <ele>444.99000000000001</ele>
        <time>2019-04-26T07:56:41Z</time>
      </trkpt>
      <trkpt lat="50.545590771362185" lon="6.269024619832635">
        <ele>445.06999999999999</ele>
        <time>2019-04-26T07:57:03Z</time>
      </trkpt>
      <trkpt lat="50.545427994802594" lon="6.268739048391581">
        <ele>445.94999999999999</ele>
        <time>2019-04-26T07:57:24Z</time>
      </trkpt>
      <trkpt lat="50.545299248769879" lon="6.268513239920139">
        <ele>446.81</ele>
        <time>2019-04-26T07:57:42Z</time>
      </trkpt>
      <trkpt lat="50.545130437240005" lon="6.268263962119818">
        <ele>448.43000000000001</ele>
        <time>2019-04-26T07:58:00Z</time>
      </trkpt>
      <trkpt lat="50.544806309044361" lon="6.267843609675765">
        <ele>451.13999999999999</ele>
        <time>2019-04-26T07:58:25Z</time>
      </trkpt>
      <trkpt lat="50.544660044834018" lon="6.267610844224691">
        <ele>452.06999999999999</ele>
        <time>2019-04-26T07:58:36Z</time>
      </trkpt>
      <trkpt lat="50.544601706787944" lon="6.267527947202325">
        <ele>454.38</ele>
        <time>2019-04-26T07:58:43Z</time>
      </trkpt>
      <trkpt lat="50.544450748711824" lon="6.267331056296825">
        <ele>455.26999999999998</ele>
        <time>2019-04-26T07:58:59Z</time>
      </trkpt>
      <trkpt lat="50.54425654001534" lon="6.267123771831393">
        <ele>456.19</ele>
        <time>2019-04-26T07:59:20Z</time>
      </trkpt>
      <trkpt lat="50.544087560847402" lon="6.266961582005024">
        <ele>457.94</ele>
        <time>2019-04-26T07:59:41Z</time>
      </trkpt>
      <trkpt lat="50.543786399066448" lon="6.266694031655788">
        <ele>459.06999999999999</ele>
        <time>2019-04-26T08:00:03Z</time>
      </trkpt>
      <trkpt lat="50.543730324134231" lon="6.266650529578328">
        <ele>459.91000000000003</ele>
        <time>2019-04-26T08:00:09Z</time>
      </trkpt>
      <trkpt lat="50.543559920042753" lon="6.266515078023076">
        <ele>460.98000000000002</ele>
        <time>2019-04-26T08:00:28Z</time>
      </trkpt>
      <trkpt lat="50.543258925899863" lon="6.266330005601049">
        <ele>463.77999999999997</ele>
        <time>2019-04-26T08:00:49Z</time>
      </trkpt>
      <trkpt lat="50.54302079603076" lon="6.266179634258151">
        <ele>465.57999999999998</ele>
        <time>2019-04-26T08:01:04Z</time>
      </trkpt>
      <trkpt lat="50.542919710278511" lon="6.266173180192709">
        <ele>467.47000000000003</ele>
        <time>2019-04-26T08:01:18Z</time>
      </trkpt>
      <trkpt lat="50.542797753587365" lon="6.266221292316914">
        <ele>470.39999999999998</ele>
        <time>2019-04-26T08:01:33Z</time>
      </trkpt>
      <trkpt lat="50.54261720739305" lon="6.266173850744963">
        <ele>471.33999999999997</ele>
        <time>2019-04-26T08:01:46Z</time>
      </trkpt>
      <trkpt lat="50.542594157159328" lon="6.266167983412743">
        <ele>471.44999999999999</ele>
        <time>2019-04-26T08:01:47Z</time>
      </trkpt>
      <trkpt lat="50.54231327958405" lon="6.26611115410924">
        <ele>474.62</ele>
        <time>2019-04-26T08:02:05Z</time>
      </trkpt>
      <trkpt lat="50.542293582111597" lon="6.266137473285198">
        <ele>475.87</ele>
        <time>2019-04-26T08:02:09Z</time>
      </trkpt>
      <trkpt lat="50.542237088084221" lon="6.266155829653144">
        <ele>475.91000000000003</ele>
        <time>2019-04-26T08:02:14Z</time>
      </trkpt>
      <trkpt lat="50.542145976796746" lon="6.266152644529939">
        <ele>475.95999999999998</ele>
        <time>2019-04-26T08:02:18Z</time>
      </trkpt>
      <trkpt lat="50.542058385908604" lon="6.266155326738954">
        <ele>476.00999999999999</ele>
        <time>2019-04-26T08:02:23Z</time>
      </trkpt>
      <trkpt lat="50.541931819170713" lon="6.26615708693862">
        <ele>477.02999999999997</ele>
        <time>2019-04-26T08:02:36Z</time>
      </trkpt>
      <trkpt lat="50.541854118928313" lon="6.266166223213077">
        <ele>477.06</ele>
        <time>2019-04-26T08:02:42Z</time>
      </trkpt>
      <trkpt lat="50.541571397334337" lon="6.266147028654814">
        <ele>478.08999999999997</ele>
        <time>2019-04-26T08:03:01Z</time>
      </trkpt>
      <trkpt lat="50.541291022673249" lon="6.266198744997382">
        <ele>479.05000000000001</ele>
        <time>2019-04-26T08:03:21Z</time>
      </trkpt>
      <trkpt lat="50.541064627468586" lon="6.266266889870167">
        <ele>480.01999999999998</ele>
        <time>2019-04-26T08:03:40Z</time>
      </trkpt>
      <trkpt lat="50.540754916146398" lon="6.266378033906221">
        <ele>481.91000000000003</ele>
        <time>2019-04-26T08:04:01Z</time>
      </trkpt>
      <trkpt lat="50.540521312505007" lon="6.266548186540604">
        <ele>483.56999999999999</ele>
        <time>2019-04-26T08:04:17Z</time>
      </trkpt>
      <trkpt lat="50.540154436603189" lon="6.266525806859136">
        <ele>486.69</ele>
        <time>2019-04-26T08:04:42Z</time>
      </trkpt>
      <trkpt lat="50.540058799088001" lon="6.266295639798045">
        <ele>487.97000000000003</ele>
        <time>2019-04-26T08:04:56Z</time>
      </trkpt>
      <trkpt lat="50.540001215413213" lon="6.266145268455148">
        <ele>487.99000000000001</ele>
        <time>2019-04-26T08:05:01Z</time>
      </trkpt>
      <trkpt lat="50.539948744699359" lon="6.265837652608752">
        <ele>489.95999999999998</ele>
        <time>2019-04-26T08:05:19Z</time>
      </trkpt>
      <trkpt lat="50.539884623140097" lon="6.265629529953003">
        <ele>492.99000000000001</ele>
        <time>2019-04-26T08:05:34Z</time>
      </trkpt>
      <trkpt lat="50.539842881262302" lon="6.265525594353676">
        <ele>495.08999999999997</ele>
        <time>2019-04-26T08:05:40Z</time>
      </trkpt>
      <trkpt lat="50.539712207391858" lon="6.265134243294597">
        <ele>499.81</ele>
        <time>2019-04-26T08:06:17Z</time>
      </trkpt>
      <trkpt lat="50.539676500484347" lon="6.264969790354371">
        <ele>503.31</ele>
        <time>2019-04-26T08:06:27Z</time>
      </trkpt>
      <trkpt lat="50.53963266313076" lon="6.264850599691272">
        <ele>505.41000000000003</ele>
        <time>2019-04-26T08:06:34Z</time>
      </trkpt>
      <trkpt lat="50.539596788585186" lon="6.264770552515984">
        <ele>508.00999999999999</ele>
        <time>2019-04-26T08:06:38Z</time>
      </trkpt>
      <trkpt lat="50.539542054757476" lon="6.264597969129682">
        <ele>511.66000000000003</ele>
        <time>2019-04-26T08:06:49Z</time>
      </trkpt>
      <trkpt lat="50.539530906826258" lon="6.264568381011486">
        <ele>511.91000000000003</ele>
        <time>2019-04-26T08:06:50Z</time>
      </trkpt>
      <trkpt lat="50.539470138028264" lon="6.264491770416498">
        <ele>509.32999999999998</ele>
        <time>2019-04-26T08:06:53Z</time>
      </trkpt>
      <trkpt lat="50.539387157186866" lon="6.264343075454235">
        <ele>509.26999999999998</ele>
        <time>2019-04-26T08:07:06Z</time>
      </trkpt>
      <trkpt lat="50.539312642067671" lon="6.26420309767127">
        <ele>509.25</ele>
        <time>2019-04-26T08:07:16Z</time>
      </trkpt>
      <trkpt lat="50.539260506629944" lon="6.264119446277618">
        <ele>511.47000000000003</ele>
        <time>2019-04-26T08:07:20Z</time>
      </trkpt>
      <trkpt lat="50.539089264348149" lon="6.263901768252254">
        <ele>513.01999999999998</ele>
        <time>2019-04-26T08:07:37Z</time>
      </trkpt>
      <trkpt lat="50.539047438651323" lon="6.263860780745745">
        <ele>513.09000000000003</ele>
        <time>2019-04-26T08:07:41Z</time>
      </trkpt>
      <trkpt lat="50.53887334652245" lon="6.263695573434234">
        <ele>514.5</ele>
        <time>2019-04-26T08:07:55Z</time>
      </trkpt>
      <trkpt lat="50.538689196109772" lon="6.26343984156847">
        <ele>515.51999999999998</ele>
        <time>2019-04-26T08:08:12Z</time>
      </trkpt>
      <trkpt lat="50.538711994886398" lon="6.263366751372814">
        <ele>517.12</ele>
        <time>2019-04-26T08:08:24Z</time>
      </trkpt>
      <trkpt lat="50.538739990442991" lon="6.263413270935416">
        <ele>517.09000000000003</ele>
        <time>2019-04-26T08:08:29Z</time>
      </trkpt>
      <trkpt lat="50.538893295451999" lon="6.263563642278314">
        <ele>516.99000000000001</ele>
        <time>2019-04-26T08:08:45Z</time>
      </trkpt>
      <trkpt lat="50.539087168872356" lon="6.263704877346754">
        <ele>516.92999999999995</ele>
        <time>2019-04-26T08:09:01Z</time>
      </trkpt>
      <trkpt lat="50.539231589064002" lon="6.263811076059938">
        <ele>516.77999999999997</ele>
        <time>2019-04-26T08:09:17Z</time>
      </trkpt>
      <trkpt lat="50.539375003427267" lon="6.263934373855591">
        <ele>516.69000000000005</ele>
        <time>2019-04-26T08:09:30Z</time>
      </trkpt>
      <trkpt lat="50.539605924859643" lon="6.264062616974115">
        <ele>517.30999999999995</ele>
        <time>2019-04-26T08:09:45Z</time>
      </trkpt>
      <trkpt lat="50.53984715603292" lon="6.264104694128037">
        <ele>517.14999999999998</ele>
        <time>2019-04-26T08:09:59Z</time>
      </trkpt>
      <trkpt lat="50.540112862363458" lon="6.264055576175451">
        <ele>517.04999999999995</ele>
        <time>2019-04-26T08:10:16Z</time>
      </trkpt>
      <trkpt lat="50.540262144058943" lon="6.264007212594152">
        <ele>514.73000000000002</ele>
        <time>2019-04-26T08:10:27Z</time>
      </trkpt>
      <trkpt lat="50.540474792942405" lon="6.263908054679632">
        <ele>514.70000000000005</ele>
        <time>2019-04-26T08:10:43Z</time>
      </trkpt>
      <trkpt lat="50.540680401027203" lon="6.263794479891658">
        <ele>514.71000000000004</ele>
        <time>2019-04-26T08:10:59Z</time>
      </trkpt>
      <trkpt lat="50.540979551151395" lon="6.263634217903018">
        <ele>513.92999999999995</ele>
        <time>2019-04-26T08:11:21Z</time>
      </trkpt>
      <trkpt lat="50.541149284690619" lon="6.26353170722723">
        <ele>513.96000000000004</ele>
        <time>2019-04-26T08:11:37Z</time>
      </trkpt>
      <trkpt lat="50.54135313257575" lon="6.263432633131743">
        <ele>513.17999999999995</ele>
        <time>2019-04-26T08:11:52Z</time>
      </trkpt>
      <trkpt lat="50.541592016816139" lon="6.263220151886344">
        <ele>513.27999999999997</ele>
        <time>2019-04-26T08:12:10Z</time>
      </trkpt>
      <trkpt lat="50.541768539696932" lon="6.26306215301156">
        <ele>513.27999999999997</ele>
        <time>2019-04-26T08:12:25Z</time>
      </trkpt>
      <trkpt lat="50.541909858584404" lon="6.262822849676013">
        <ele>514.13999999999999</ele>
        <time>2019-04-26T08:12:42Z</time>
      </trkpt>
      <trkpt lat="50.541983870789409" lon="6.262528393417597">
        <ele>514.27999999999997</ele>
        <time>2019-04-26T08:12:56Z</time>
      </trkpt>
      <trkpt lat="50.54196341894567" lon="6.262311805039644">
        <ele>511.52999999999997</ele>
        <time>2019-04-26T08:13:07Z</time>
      </trkpt>
      <trkpt lat="50.541944978758693" lon="6.262234775349498">
        <ele>510.81999999999999</ele>
        <time>2019-04-26T08:13:11Z</time>
      </trkpt>
      <trkpt lat="50.541804246604443" lon="6.261945180594921">
        <ele>510.95999999999998</ele>
        <time>2019-04-26T08:13:28Z</time>
      </trkpt>
      <trkpt lat="50.54171372205019" lon="6.261759521439672">
        <ele>513.25</ele>
        <time>2019-04-26T08:13:40Z</time>
      </trkpt>
      <trkpt lat="50.541616575792432" lon="6.261541172862053">
        <ele>513.25999999999999</ele>
        <time>2019-04-26T08:13:54Z</time>
      </trkpt>
      <trkpt lat="50.541488165035844" lon="6.261228611692786">
        <ele>514.10000000000002</ele>
        <time>2019-04-26T08:14:10Z</time>
      </trkpt>
      <trkpt lat="50.541477603837848" lon="6.261205645278096">
        <ele>514.13999999999999</ele>
        <time>2019-04-26T08:14:11Z</time>
      </trkpt>
      <trkpt lat="50.541359838098288" lon="6.260874141007662">
        <ele>514.14999999999998</ele>
        <time>2019-04-26T08:14:28Z</time>
      </trkpt>
      <trkpt lat="50.541278030723333" lon="6.260624527931213">
        <ele>514.13</ele>
        <time>2019-04-26T08:14:42Z</time>
      </trkpt>
      <trkpt lat="50.541173424571753" lon="6.260270224884152">
        <ele>514.21000000000004</ele>
        <time>2019-04-26T08:14:59Z</time>
      </trkpt>
      <trkpt lat="50.541101759299636" lon="6.260032597929239">
        <ele>512.00999999999999</ele>
        <time>2019-04-26T08:15:11Z</time>
      </trkpt>
      <trkpt lat="50.540923811495304" lon="6.259759096428752">
        <ele>512.13999999999999</ele>
        <time>2019-04-26T08:15:28Z</time>
      </trkpt>
      <trkpt lat="50.540820378810167" lon="6.259601265192032">
        <ele>514.5</ele>
        <time>2019-04-26T08:15:38Z</time>
      </trkpt>
      <trkpt lat="50.540647292509675" lon="6.259340588003397">
        <ele>515.58000000000004</ele>
        <time>2019-04-26T08:15:56Z</time>
      </trkpt>
      <trkpt lat="50.540421567857265" lon="6.259092735126615">
        <ele>519.34000000000003</ele>
        <time>2019-04-26T08:16:16Z</time>
      </trkpt>
      <trkpt lat="50.540143121033907" lon="6.259022913873196">
        <ele>520.89999999999998</ele>
        <time>2019-04-26T08:16:36Z</time>
      </trkpt>
      <trkpt lat="50.540032899007201" lon="6.25906222499907">
        <ele>523.00999999999999</ele>
        <time>2019-04-26T08:16:44Z</time>
      </trkpt>
      <trkpt lat="50.539846066385508" lon="6.259148390963674">
        <ele>525.88</ele>
        <time>2019-04-26T08:16:57Z</time>
      </trkpt>
      <trkpt lat="50.539603577926755" lon="6.259299097582698">
        <ele>527.73000000000002</ele>
        <time>2019-04-26T08:17:15Z</time>
      </trkpt>
      <trkpt lat="50.539385564625263" lon="6.259419294074178">
        <ele>530.25999999999999</ele>
        <time>2019-04-26T08:17:33Z</time>
      </trkpt>
      <trkpt lat="50.539308451116085" lon="6.259405799210072">
        <ele>530.28999999999996</ele>
        <time>2019-04-26T08:17:40Z</time>
      </trkpt>
      <trkpt lat="50.539164450019598" lon="6.259188540279865">
        <ele>531.09000000000003</ele>
        <time>2019-04-26T08:17:55Z</time>
      </trkpt>
      <trkpt lat="50.538996141403913" lon="6.258828202262521">
        <ele>533.51999999999998</ele>
        <time>2019-04-26T08:18:17Z</time>
      </trkpt>
      <trkpt lat="50.53885038010776" lon="6.258488483726978">
        <ele>534.35000000000002</ele>
        <time>2019-04-26T08:18:36Z</time>
      </trkpt>
      <trkpt lat="50.538654746487737" lon="6.25821003690362">
        <ele>536.08000000000004</ele>
        <time>2019-04-26T08:18:55Z</time>
      </trkpt>
      <trkpt lat="50.538532873615623" lon="6.258036699146032">
        <ele>537.82000000000005</ele>
        <time>2019-04-26T08:19:09Z</time>
      </trkpt>
      <trkpt lat="50.538405468687415" lon="6.257876688614488">
        <ele>537.80999999999995</ele>
        <time>2019-04-26T08:19:21Z</time>
      </trkpt>
      <trkpt lat="50.538242189213634" lon="6.257619364187121">
        <ele>539.75</ele>
        <time>2019-04-26T08:19:37Z</time>
      </trkpt>
      <trkpt lat="50.538136996328831" lon="6.257345527410507">
        <ele>540.65999999999997</ele>
        <time>2019-04-26T08:19:51Z</time>
      </trkpt>
      <trkpt lat="50.538018140941858" lon="6.256998516619206">
        <ele>541.45000000000005</ele>
        <time>2019-04-26T08:20:08Z</time>
      </trkpt>
      <trkpt lat="50.537926107645035" lon="6.256751669570804">
        <ele>542.33000000000004</ele>
        <time>2019-04-26T08:20:22Z</time>
      </trkpt>
      <trkpt lat="50.537863746285439" lon="6.256528291851282">
        <ele>543.24000000000001</ele>
        <time>2019-04-26T08:20:35Z</time>
      </trkpt>
      <trkpt lat="50.537814293056726" lon="6.256384206935763">
        <ele>544.00999999999999</ele>
        <time>2019-04-26T08:20:43Z</time>
      </trkpt>
      <trkpt lat="50.537788309156895" lon="6.256310446187854">
        <ele>544.01999999999998</ele>
        <time>2019-04-26T08:20:47Z</time>
      </trkpt>
      <trkpt lat="50.537681020796299" lon="6.256074579432607">
        <ele>544.84000000000003</ele>
        <time>2019-04-26T08:21:00Z</time>
      </trkpt>
      <trkpt lat="50.537526123225689" lon="6.255966536700726">
        <ele>544.85000000000002</ele>
        <time>2019-04-26T08:21:14Z</time>
      </trkpt>
      <trkpt lat="50.537451105192304" lon="6.255977181717753">
        <ele>545.64999999999998</ele>
        <time>2019-04-26T08:21:21Z</time>
      </trkpt>
      <trkpt lat="50.537228817120194" lon="6.256032083183527">
        <ele>545.65999999999997</ele>
        <time>2019-04-26T08:21:40Z</time>
      </trkpt>
      <trkpt lat="50.537010803818703" lon="6.256087906658649">
        <ele>545.65999999999997</ele>
        <time>2019-04-26T08:21:54Z</time>
      </trkpt>
      <trkpt lat="50.536867557093501" lon="6.256164936348796">
        <ele>545.66999999999996</ele>
        <time>2019-04-26T08:22:07Z</time>
      </trkpt>
      <trkpt lat="50.536743337288499" lon="6.256302986294031">
        <ele>545.66999999999996</ele>
        <time>2019-04-26T08:22:18Z</time>
      </trkpt>
      <trkpt lat="50.536722298711538" lon="6.256333077326417">
        <ele>545.66999999999996</ele>
        <time>2019-04-26T08:22:20Z</time>
      </trkpt>
      <trkpt lat="50.536636132746935" lon="6.256386889144778">
        <ele>546.46000000000004</ele>
        <time>2019-04-26T08:22:25Z</time>
      </trkpt>
      <trkpt lat="50.536559773609042" lon="6.256411783397198">
        <ele>546.47000000000003</ele>
        <time>2019-04-26T08:22:31Z</time>
      </trkpt>
      <trkpt lat="50.536495987325907" lon="6.256282282993197">
        <ele>547.26999999999998</ele>
        <time>2019-04-26T08:22:43Z</time>
      </trkpt>
      <trkpt lat="50.536483163014054" lon="6.256246492266655">
        <ele>548.19000000000005</ele>
        <time>2019-04-26T08:22:45Z</time>
      </trkpt>
      <trkpt lat="50.536406049504876" lon="6.255882550030947">
        <ele>548.22000000000003</ele>
        <time>2019-04-26T08:23:04Z</time>
      </trkpt>
      <trkpt lat="50.536402864381671" lon="6.255863020196557">
        <ele>542.72000000000003</ele>
        <time>2019-04-26T08:23:05Z</time>
      </trkpt>
      <trkpt lat="50.536400014534593" lon="6.255843658000231">
        <ele>547.89999999999998</ele>
        <time>2019-04-26T08:23:06Z</time>
      </trkpt>
      <trkpt lat="50.536393560469151" lon="6.255473010241985">
        <ele>547.88</ele>
        <time>2019-04-26T08:23:23Z</time>
      </trkpt>
      <trkpt lat="50.536403870210052" lon="6.25538332387805">
        <ele>542.02999999999997</ele>
        <time>2019-04-26T08:23:27Z</time>
      </trkpt>
      <trkpt lat="50.53640965372324" lon="6.255358597263694">
        <ele>546.87</ele>
        <time>2019-04-26T08:23:28Z</time>
      </trkpt>
      <trkpt lat="50.536508308723569" lon="6.255002617835999">
        <ele>546.88</ele>
        <time>2019-04-26T08:23:46Z</time>
      </trkpt>
      <trkpt lat="50.536589529365301" lon="6.254669018089771">
        <ele>546.90999999999997</ele>
        <time>2019-04-26T08:23:58Z</time>
      </trkpt>
      <trkpt lat="50.536602102220058" lon="6.254641944542527">
        <ele>546.91999999999996</ele>
        <time>2019-04-26T08:23:59Z</time>
      </trkpt>
      <trkpt lat="50.536614842712879" lon="6.254610931500793">
        <ele>546.91999999999996</ele>
        <time>2019-04-26T08:24:00Z</time>
      </trkpt>
      <trkpt lat="50.536626325920224" lon="6.254583103582263">
        <ele>546.92999999999995</ele>
        <time>2019-04-26T08:24:01Z</time>
      </trkpt>
      <trkpt lat="50.536634791642427" lon="6.25455167144537">
        <ele>546.92999999999995</ele>
        <time>2019-04-26T08:24:02Z</time>
      </trkpt>
      <trkpt lat="50.536645939573646" lon="6.254536919295788">
        <ele>546.94000000000005</ele>
        <time>2019-04-26T08:24:03Z</time>
      </trkpt>
      <trkpt lat="50.536677874624729" lon="6.25442560762167">
        <ele>546.91999999999996</ele>
        <time>2019-04-26T08:24:26Z</time>
      </trkpt>
      <trkpt lat="50.536684663966298" lon="6.254412615671754">
        <ele>546.90999999999997</ele>
        <time>2019-04-26T08:24:27Z</time>
      </trkpt>
      <trkpt lat="50.536717437207699" lon="6.254347991198301">
        <ele>546.94000000000005</ele>
        <time>2019-04-26T08:24:32Z</time>
      </trkpt>
      <trkpt lat="50.536717604845762" lon="6.254268866032362">
        <ele>546.92999999999995</ele>
        <time>2019-04-26T08:24:36Z</time>
      </trkpt>
      <trkpt lat="50.536720203235745" lon="6.254246151074767">
        <ele>546.91999999999996</ele>
        <time>2019-04-26T08:24:37Z</time>
      </trkpt>
      <trkpt lat="50.536728417500854" lon="6.25406401231885">
        <ele>546.91999999999996</ele>
        <time>2019-04-26T08:24:48Z</time>
      </trkpt>
      <trkpt lat="50.536675611510873" lon="6.253648521378636">
        <ele>547.61000000000001</ele>
        <time>2019-04-26T08:25:10Z</time>
      </trkpt>
      <trkpt lat="50.536605035886168" lon="6.253301091492176">
        <ele>547.57000000000005</ele>
        <time>2019-04-26T08:25:24Z</time>
      </trkpt>
      <trkpt lat="50.536541249603033" lon="6.252955924719572">
        <ele>547.5</ele>
        <time>2019-04-26T08:25:39Z</time>
      </trkpt>
      <trkpt lat="50.536487102508545" lon="6.252684853971005">
        <ele>545.14999999999998</ele>
        <time>2019-04-26T08:25:52Z</time>
      </trkpt>
      <trkpt lat="50.536425411701202" lon="6.252425098791719">
        <ele>545.13999999999999</ele>
        <time>2019-04-26T08:26:09Z</time>
      </trkpt>
      <trkpt lat="50.536386854946613" lon="6.252353936433792">
        <ele>545.09000000000003</ele>
        <time>2019-04-26T08:26:20Z</time>
      </trkpt>
      <trkpt lat="50.536376377567649" lon="6.252346644178033">
        <ele>545.08000000000004</ele>
        <time>2019-04-26T08:26:21Z</time>
      </trkpt>
      <trkpt lat="50.536364810541272" lon="6.252341950312257">
        <ele>543.98000000000002</ele>
        <time>2019-04-26T08:26:22Z</time>
      </trkpt>
      <trkpt lat="50.536352321505547" lon="6.252341363579035">
        <ele>543.97000000000003</ele>
        <time>2019-04-26T08:26:23Z</time>
      </trkpt>
      <trkpt lat="50.536340000107884" lon="6.252344967797399">
        <ele>543.97000000000003</ele>
        <time>2019-04-26T08:26:24Z</time>
      </trkpt>
      <trkpt lat="50.536211086437106" lon="6.252357037737966">
        <ele>543.91999999999996</ele>
        <time>2019-04-26T08:26:37Z</time>
      </trkpt>
      <trkpt lat="50.536041352897882" lon="6.252442449331284">
        <ele>543.97000000000003</ele>
        <time>2019-04-26T08:26:50Z</time>
      </trkpt>
      <trkpt lat="50.535836247727275" lon="6.252495003864169">
        <ele>543.95000000000005</ele>
        <time>2019-04-26T08:27:05Z</time>
      </trkpt>
      <trkpt lat="50.535583784803748" lon="6.252571614459157">
        <ele>544</ele>
        <time>2019-04-26T08:27:22Z</time>
      </trkpt>
      <trkpt lat="50.535354288294911" lon="6.252684015780687">
        <ele>543.17999999999995</ele>
        <time>2019-04-26T08:27:38Z</time>
      </trkpt>
      <trkpt lat="50.535262003540993" lon="6.252776551991701">
        <ele>544.47000000000003</ele>
        <time>2019-04-26T08:27:46Z</time>
      </trkpt>
      <trkpt lat="50.535078020766377" lon="6.252899765968323">
        <ele>544.5</ele>
        <time>2019-04-26T08:28:00Z</time>
      </trkpt>
      <trkpt lat="50.535031920298934" lon="6.252943351864815">
        <ele>542.25</ele>
        <time>2019-04-26T08:28:04Z</time>
      </trkpt>
      <trkpt lat="50.534846177324653" lon="6.253079557791352">
        <ele>542.32000000000005</ele>
        <time>2019-04-26T08:28:21Z</time>
      </trkpt>
      <trkpt lat="50.534701589494944" lon="6.253146948292851">
        <ele>541.51999999999998</ele>
        <time>2019-04-26T08:28:37Z</time>
      </trkpt>
      <trkpt lat="50.534526659175754" lon="6.253269826993346">
        <ele>541.55999999999995</ele>
        <time>2019-04-26T08:28:52Z</time>
      </trkpt>
      <trkpt lat="50.534353824332356" lon="6.253447690978646">
        <ele>541.58000000000004</ele>
        <time>2019-04-26T08:29:07Z</time>
      </trkpt>
      <trkpt lat="50.53416782990098" lon="6.253526648506522">
        <ele>541.60000000000002</ele>
        <time>2019-04-26T08:29:22Z</time>
      </trkpt>
      <trkpt lat="50.534069761633873" lon="6.253593703731895">
        <ele>538.16999999999996</ele>
        <time>2019-04-26T08:29:30Z</time>
      </trkpt>
      <trkpt lat="50.534057021141052" lon="6.253597727045417">
        <ele>542.95000000000005</ele>
        <time>2019-04-26T08:29:31Z</time>
      </trkpt>
      <trkpt lat="50.534042017534375" lon="6.25360325910151">
        <ele>542.95000000000005</ele>
        <time>2019-04-26T08:29:32Z</time>
      </trkpt>
      <trkpt lat="50.533924167975783" lon="6.253660591319203">
        <ele>540.67999999999995</ele>
        <time>2019-04-26T08:29:40Z</time>
      </trkpt>
      <trkpt lat="50.533713111653924" lon="6.253774669021368">
        <ele>540.75</ele>
        <time>2019-04-26T08:29:56Z</time>
      </trkpt>
      <trkpt lat="50.533471629023552" lon="6.253890926018357">
        <ele>540.82000000000005</ele>
        <time>2019-04-26T08:30:16Z</time>
      </trkpt>
      <trkpt lat="50.533462995663285" lon="6.253879694268107">
        <ele>540.82000000000005</ele>
        <time>2019-04-26T08:30:17Z</time>
      </trkpt>
      <trkpt lat="50.533455032855272" lon="6.253866031765938">
        <ele>540.82000000000005</ele>
        <time>2019-04-26T08:30:18Z</time>
      </trkpt>
      <trkpt lat="50.533359227702022" lon="6.253652041777968">
        <ele>539.88999999999999</ele>
        <time>2019-04-26T08:30:34Z</time>
      </trkpt>
      <trkpt lat="50.533312959596515" lon="6.25353922136128">
        <ele>539.00999999999999</ele>
        <time>2019-04-26T08:30:42Z</time>
      </trkpt>
      <trkpt lat="50.533306924626231" lon="6.253516925498843">
        <ele>539</ele>
        <time>2019-04-26T08:30:43Z</time>
      </trkpt>
      <trkpt lat="50.533189745619893" lon="6.253229007124901">
        <ele>538.98000000000002</ele>
        <time>2019-04-26T08:30:58Z</time>
      </trkpt>
      <trkpt lat="50.533115984871984" lon="6.25310922972858">
        <ele>538.15999999999997</ele>
        <time>2019-04-26T08:31:05Z</time>
      </trkpt>
      <trkpt lat="50.533109111711383" lon="6.253089867532253">
        <ele>538.14999999999998</ele>
        <time>2019-04-26T08:31:06Z</time>
      </trkpt>
      <trkpt lat="50.53310357965529" lon="6.253068493679166">
        <ele>538.13999999999999</ele>
        <time>2019-04-26T08:31:07Z</time>
      </trkpt>
      <trkpt lat="50.533097125589848" lon="6.253046281635761">
        <ele>538.13999999999999</ele>
        <time>2019-04-26T08:31:08Z</time>
      </trkpt>
      <trkpt lat="50.533089330419898" lon="6.253024153411388">
        <ele>538.13</ele>
        <time>2019-04-26T08:31:09Z</time>
      </trkpt>
      <trkpt lat="50.533081786707044" lon="6.253004036843777">
        <ele>538.13999999999999</ele>
        <time>2019-04-26T08:31:10Z</time>
      </trkpt>
      <trkpt lat="50.533073404803872" lon="6.252985596656799">
        <ele>538.13999999999999</ele>
        <time>2019-04-26T08:31:11Z</time>
      </trkpt>
      <trkpt lat="50.532986652106047" lon="6.252669263631105">
        <ele>537.25999999999999</ele>
        <time>2019-04-26T08:31:28Z</time>
      </trkpt>
      <trkpt lat="50.532988999038935" lon="6.252610925585032">
        <ele>537.23000000000002</ele>
        <time>2019-04-26T08:31:31Z</time>
      </trkpt>
      <trkpt lat="50.532990926876664" lon="6.252592066302896">
        <ele>536.40999999999997</ele>
        <time>2019-04-26T08:31:32Z</time>
      </trkpt>
      <trkpt lat="50.53299461491406" lon="6.252366676926613">
        <ele>534.59000000000003</ele>
        <time>2019-04-26T08:31:45Z</time>
      </trkpt>
      <trkpt lat="50.53296091966331" lon="6.252100886777043">
        <ele>534.67999999999995</ele>
        <time>2019-04-26T08:31:59Z</time>
      </trkpt>
      <trkpt lat="50.532906604930758" lon="6.251771980896592">
        <ele>534.67999999999995</ele>
        <time>2019-04-26T08:32:13Z</time>
      </trkpt>
      <trkpt lat="50.532898223027587" lon="6.251676678657532">
        <ele>532.38</ele>
        <time>2019-04-26T08:32:19Z</time>
      </trkpt>
      <trkpt lat="50.53287441842258" lon="6.251317346468568">
        <ele>532.33000000000004</ele>
        <time>2019-04-26T08:32:37Z</time>
      </trkpt>
      <trkpt lat="50.532854720950127" lon="6.250923397019506">
        <ele>531.51999999999998</ele>
        <time>2019-04-26T08:32:57Z</time>
      </trkpt>
      <trkpt lat="50.53284851834178" lon="6.250539589673281">
        <ele>530.37</ele>
        <time>2019-04-26T08:33:15Z</time>
      </trkpt>
      <trkpt lat="50.532863354310393" lon="6.250183526426554">
        <ele>529.60000000000002</ele>
        <time>2019-04-26T08:33:30Z</time>
      </trkpt>
      <trkpt lat="50.532867629081011" lon="6.250151256099343">
        <ele>529.59000000000003</ele>
        <time>2019-04-26T08:33:32Z</time>
      </trkpt>
      <trkpt lat="50.532864024862647" lon="6.249889573082328">
        <ele>528.70000000000005</ele>
        <time>2019-04-26T08:33:47Z</time>
      </trkpt>
      <trkpt lat="50.532857989892364" lon="6.249549183994532">
        <ele>528.63</ele>
        <time>2019-04-26T08:34:03Z</time>
      </trkpt>
      <trkpt lat="50.532879447564483" lon="6.249193539842963">
        <ele>527.71000000000004</ele>
        <time>2019-04-26T08:34:17Z</time>
      </trkpt>
      <trkpt lat="50.532879028469324" lon="6.249169399961829">
        <ele>527.70000000000005</ele>
        <time>2019-04-26T08:34:18Z</time>
      </trkpt>
      <trkpt lat="50.532896379008889" lon="6.249051718041301">
        <ele>527.65999999999997</ele>
        <time>2019-04-26T08:34:23Z</time>
      </trkpt>
      <trkpt lat="50.532896462827921" lon="6.249030930921435">
        <ele>527.65999999999997</ele>
        <time>2019-04-26T08:34:24Z</time>
      </trkpt>
      <trkpt lat="50.532897133380175" lon="6.249009389430285">
        <ele>527.63999999999999</ele>
        <time>2019-04-26T08:34:25Z</time>
      </trkpt>
      <trkpt lat="50.532900486141443" lon="6.248986339196563">
        <ele>527.63999999999999</ele>
        <time>2019-04-26T08:34:26Z</time>
      </trkpt>
      <trkpt lat="50.532906856387854" lon="6.248962618410587">
        <ele>527.63</ele>
        <time>2019-04-26T08:34:27Z</time>
      </trkpt>
      <trkpt lat="50.532908784225583" lon="6.248942920938134">
        <ele>527.63</ele>
        <time>2019-04-26T08:34:28Z</time>
      </trkpt>
      <trkpt lat="50.532911382615566" lon="6.248920205980539">
        <ele>527.63</ele>
        <time>2019-04-26T08:34:29Z</time>
      </trkpt>
      <trkpt lat="50.532918088138103" lon="6.248898832127452">
        <ele>527.62</ele>
        <time>2019-04-26T08:34:30Z</time>
      </trkpt>
      <trkpt lat="50.532940803095698" lon="6.248619128018618">
        <ele>527.52999999999997</ele>
        <time>2019-04-26T08:34:43Z</time>
      </trkpt>
      <trkpt lat="50.532935354858637" lon="6.248394995927811">
        <ele>525.75</ele>
        <time>2019-04-26T08:34:57Z</time>
      </trkpt>
      <trkpt lat="50.532927308231592" lon="6.248349817469716">
        <ele>525.75999999999999</ele>
        <time>2019-04-26T08:34:59Z</time>
      </trkpt>
      <trkpt lat="50.532857570797205" lon="6.247929716482759">
        <ele>524.63999999999999</ele>
        <time>2019-04-26T08:35:21Z</time>
      </trkpt>
      <trkpt lat="50.532756987959146" lon="6.247583627700806">
        <ele>523.64999999999998</ele>
        <time>2019-04-26T08:35:40Z</time>
      </trkpt>
      <trkpt lat="50.532670151442289" lon="6.247449349611998">
        <ele>522.59000000000003</ele>
        <time>2019-04-26T08:35:49Z</time>
      </trkpt>
      <trkpt lat="50.532655483111739" lon="6.247432082891464">
        <ele>522.59000000000003</ele>
        <time>2019-04-26T08:35:50Z</time>
      </trkpt>
      <trkpt lat="50.53257392719388" lon="6.247260002419353">
        <ele>519.48000000000002</ele>
        <time>2019-04-26T08:36:08Z</time>
      </trkpt>
      <trkpt lat="50.53259102627635" lon="6.247020363807678">
        <ele>516.70000000000005</ele>
        <time>2019-04-26T08:36:23Z</time>
      </trkpt>
      <trkpt lat="50.532586500048637" lon="6.247001839801669">
        <ele>516.70000000000005</ele>
        <time>2019-04-26T08:36:24Z</time>
      </trkpt>
      <trkpt lat="50.532662607729435" lon="6.246539745479822">
        <ele>509.81999999999999</ele>
        <time>2019-04-26T08:37:13Z</time>
      </trkpt>
      <trkpt lat="50.53270778618753" lon="6.24638183042407">
        <ele>506.25</ele>
        <time>2019-04-26T08:37:28Z</time>
      </trkpt>
      <trkpt lat="50.532593624666333" lon="6.246230034157634">
        <ele>502.38</ele>
        <time>2019-04-26T08:37:46Z</time>
      </trkpt>
      <trkpt lat="50.532469404861331" lon="6.246066754683852">
        <ele>498.81999999999999</ele>
        <time>2019-04-26T08:38:03Z</time>
      </trkpt>
      <trkpt lat="50.532305287197232" lon="6.245923424139619">
        <ele>495.44999999999999</ele>
        <time>2019-04-26T08:38:21Z</time>
      </trkpt>
      <trkpt lat="50.532156676054001" lon="6.245793672278523">
        <ele>494.69999999999999</ele>
        <time>2019-04-26T08:38:39Z</time>
      </trkpt>
      <trkpt lat="50.532102193683386" lon="6.245817812159658">
        <ele>493.81</ele>
        <time>2019-04-26T08:38:44Z</time>
      </trkpt>
      <trkpt lat="50.532065648585558" lon="6.245842454954982">
        <ele>492.55000000000001</ele>
        <time>2019-04-26T08:38:47Z</time>
      </trkpt>
      <trkpt lat="50.53191427141428" lon="6.246002716943622">
        <ele>490.08999999999997</ele>
        <time>2019-04-26T08:39:06Z</time>
      </trkpt>
      <trkpt lat="50.531759038567543" lon="6.246215282008052">
        <ele>487.33999999999997</ele>
        <time>2019-04-26T08:39:25Z</time>
      </trkpt>
      <trkpt lat="50.53159961476922" lon="6.246388033032417">
        <ele>483.62</ele>
        <time>2019-04-26T08:39:41Z</time>
      </trkpt>
      <trkpt lat="50.531453434377909" lon="6.24657385982573">
        <ele>479.93000000000001</ele>
        <time>2019-04-26T08:39:57Z</time>
      </trkpt>
      <trkpt lat="50.531271211802959" lon="6.24684258364141">
        <ele>475.31999999999999</ele>
        <time>2019-04-26T08:40:16Z</time>
      </trkpt>
      <trkpt lat="50.531258890405297" lon="6.246854066848755">
        <ele>478.37</ele>
        <time>2019-04-26T08:40:17Z</time>
      </trkpt>
      <trkpt lat="50.531219327822328" lon="6.246890109032393">
        <ele>476.04000000000002</ele>
        <time>2019-04-26T08:40:20Z</time>
      </trkpt>
      <trkpt lat="50.531118074432015" lon="6.247148355469108">
        <ele>471.94999999999999</ele>
        <time>2019-04-26T08:40:37Z</time>
      </trkpt>
      <trkpt lat="50.530986478552222" lon="6.247239131480455">
        <ele>469.43000000000001</ele>
        <time>2019-04-26T08:40:53Z</time>
      </trkpt>
      <trkpt lat="50.531040290370584" lon="6.247050790116191">
        <ele>468.52999999999997</ele>
        <time>2019-04-26T08:41:09Z</time>
      </trkpt>
      <trkpt lat="50.531162582337856" lon="6.246662121266127">
        <ele>466.83999999999997</ele>
        <time>2019-04-26T08:41:29Z</time>
      </trkpt>
      <trkpt lat="50.531263751909137" lon="6.246461039409041">
        <ele>467.27999999999997</ele>
        <time>2019-04-26T08:41:43Z</time>
      </trkpt>
      <trkpt lat="50.531273055821657" lon="6.246451651677489">
        <ele>467.26999999999998</ele>
        <time>2019-04-26T08:41:44Z</time>
      </trkpt>
      <trkpt lat="50.531350504606962" lon="6.246276972815394">
        <ele>467.11000000000001</ele>
        <time>2019-04-26T08:41:58Z</time>
      </trkpt>
      <trkpt lat="50.531471790745854" lon="6.246088463813067">
        <ele>466.94999999999999</ele>
        <time>2019-04-26T08:42:10Z</time>
      </trkpt>
      <trkpt lat="50.531530883163214" lon="6.245914623141289">
        <ele>466.81999999999999</ele>
        <time>2019-04-26T08:42:18Z</time>
      </trkpt>
      <trkpt lat="50.531657282263041" lon="6.245633326470852">
        <ele>466.58999999999997</ele>
        <time>2019-04-26T08:42:32Z</time>
      </trkpt>
      <trkpt lat="50.532018793746829" lon="6.245135106146336">
        <ele>467.00999999999999</ele>
        <time>2019-04-26T08:43:06Z</time>
      </trkpt>
      <trkpt lat="50.532076461240649" lon="6.245079031214118">
        <ele>466.93000000000001</ele>
        <time>2019-04-26T08:43:12Z</time>
      </trkpt>
      <trkpt lat="50.532163213938475" lon="6.244987081736326">
        <ele>467.63999999999999</ele>
        <time>2019-04-26T08:43:20Z</time>
      </trkpt>
      <trkpt lat="50.532316351309419" lon="6.245062267407775">
        <ele>467.42000000000002</ele>
        <time>2019-04-26T08:43:38Z</time>
      </trkpt>
      <trkpt lat="50.532451886683702" lon="6.245108619332314">
        <ele>467.25999999999999</ele>
        <time>2019-04-26T08:43:53Z</time>
      </trkpt>
      <trkpt lat="50.532679371535778" lon="6.245163856074214">
        <ele>467.07999999999998</ele>
        <time>2019-04-26T08:44:11Z</time>
      </trkpt>
      <trkpt lat="50.53268188610673" lon="6.245164275169373">
        <ele>467.06999999999999</ele>
        <time>2019-04-26T08:44:12Z</time>
      </trkpt>
      <trkpt lat="50.532806105911732" lon="6.245151031762362">
        <ele>466.94999999999999</ele>
        <time>2019-04-26T08:44:28Z</time>
      </trkpt>
      <trkpt lat="50.532942730933428" lon="6.245269300416112">
        <ele>466.87</ele>
        <time>2019-04-26T08:44:41Z</time>
      </trkpt>
      <trkpt lat="50.533159906044602" lon="6.245335265994072">
        <ele>468.36000000000001</ele>
        <time>2019-04-26T08:45:01Z</time>
      </trkpt>
      <trkpt lat="50.533318072557449" lon="6.244953889399767">
        <ele>468.19</ele>
        <time>2019-04-26T08:45:22Z</time>
      </trkpt>
      <trkpt lat="50.533383451402187" lon="6.244892366230488">
        <ele>468.13999999999999</ele>
        <time>2019-04-26T08:45:29Z</time>
      </trkpt>
      <trkpt lat="50.533473305404186" lon="6.244807289913297">
        <ele>468.81999999999999</ele>
        <time>2019-04-26T08:45:37Z</time>
      </trkpt>
      <trkpt lat="50.533741777762771" lon="6.244371179491282">
        <ele>469.43000000000001</ele>
        <time>2019-04-26T08:46:07Z</time>
      </trkpt>
      <trkpt lat="50.533838588744402" lon="6.244186442345381">
        <ele>470.25</ele>
        <time>2019-04-26T08:46:17Z</time>
      </trkpt>
      <trkpt lat="50.533894496038556" lon="6.244073873385787">
        <ele>470.08999999999997</ele>
        <time>2019-04-26T08:46:25Z</time>
      </trkpt>
      <trkpt lat="50.534390369430184" lon="6.242800578474999">
        <ele>469.13</ele>
        <time>2019-04-26T08:47:31Z</time>
      </trkpt>
      <trkpt lat="50.534432865679264" lon="6.242617601528764">
        <ele>469.05000000000001</ele>
        <time>2019-04-26T08:47:37Z</time>
      </trkpt>
      <trkpt lat="50.534598659723997" lon="6.242368072271347">
        <ele>468.77999999999997</ele>
        <time>2019-04-26T08:47:53Z</time>
      </trkpt>
      <trkpt lat="50.534766549244523" lon="6.242134217172861">
        <ele>466.32999999999998</ele>
        <time>2019-04-26T08:48:10Z</time>
      </trkpt>
      <trkpt lat="50.534858163446188" lon="6.242029443383217">
        <ele>466.19999999999999</ele>
        <time>2019-04-26T08:48:18Z</time>
      </trkpt>
      <trkpt lat="50.534969391301274" lon="6.241919388994575">
        <ele>466.07999999999998</ele>
        <time>2019-04-26T08:48:25Z</time>
      </trkpt>
      <trkpt lat="50.535121606662869" lon="6.241683606058359">
        <ele>465.82999999999998</ele>
        <time>2019-04-26T08:48:39Z</time>
      </trkpt>
      <trkpt lat="50.535309193655849" lon="6.241611186414957">
        <ele>465.56999999999999</ele>
        <time>2019-04-26T08:48:55Z</time>
      </trkpt>
      <trkpt lat="50.535388235002756" lon="6.241617808118463">
        <ele>465.42000000000002</ele>
        <time>2019-04-26T08:49:03Z</time>
      </trkpt>
      <trkpt lat="50.53565327078104" lon="6.241657957434654">
        <ele>465.44</ele>
        <time>2019-04-26T08:49:25Z</time>
      </trkpt>
      <trkpt lat="50.535862566903234" lon="6.241590231657028">
        <ele>465.25999999999999</ele>
        <time>2019-04-26T08:49:42Z</time>
      </trkpt>
      <trkpt lat="50.536148305982351" lon="6.241519236937165">
        <ele>465.18000000000001</ele>
        <time>2019-04-26T08:50:02Z</time>
      </trkpt>
      <trkpt lat="50.536192310974002" lon="6.241488223895431">
        <ele>465.18000000000001</ele>
        <time>2019-04-26T08:50:05Z</time>
      </trkpt>
      <trkpt lat="50.536236986517906" lon="6.241449415683746">
        <ele>465.16000000000003</ele>
        <time>2019-04-26T08:50:08Z</time>
      </trkpt>
      <trkpt lat="50.536295576021075" lon="6.241377163678408">
        <ele>465.18000000000001</ele>
        <time>2019-04-26T08:50:12Z</time>
      </trkpt>
      <trkpt lat="50.536510404199362" lon="6.241211537271738">
        <ele>465.97000000000003</ele>
        <time>2019-04-26T08:50:28Z</time>
      </trkpt>
      <trkpt lat="50.536560695618391" lon="6.241184547543526">
        <ele>465.95999999999998</ele>
        <time>2019-04-26T08:50:32Z</time>
      </trkpt>
      <trkpt lat="50.536661697551608" lon="6.241175830364227">
        <ele>465.94999999999999</ele>
        <time>2019-04-26T08:50:39Z</time>
      </trkpt>
      <trkpt lat="50.536710480228066" lon="6.241136938333511">
        <ele>465.89999999999998</ele>
        <time>2019-04-26T08:50:43Z</time>
      </trkpt>
      <trkpt lat="50.53685087710619" lon="6.241110535338521">
        <ele>465.91000000000003</ele>
        <time>2019-04-26T08:50:53Z</time>
      </trkpt>
      <trkpt lat="50.5370610114187" lon="6.241071727126837">
        <ele>465.86000000000001</ele>
        <time>2019-04-26T08:51:08Z</time>
      </trkpt>
      <trkpt lat="50.537220854312181" lon="6.241110032424331">
        <ele>465.81</ele>
        <time>2019-04-26T08:51:21Z</time>
      </trkpt>
      <trkpt lat="50.537363346666098" lon="6.241081114858389">
        <ele>465.76999999999998</ele>
        <time>2019-04-26T08:51:31Z</time>
      </trkpt>
      <trkpt lat="50.537447668612003" lon="6.241015652194619">
        <ele>465.72000000000003</ele>
        <time>2019-04-26T08:51:37Z</time>
      </trkpt>
      <trkpt lat="50.537623940035701" lon="6.240845583379269">
        <ele>466.45999999999998</ele>
        <time>2019-04-26T08:51:51Z</time>
      </trkpt>
      <trkpt lat="50.537642799317837" lon="6.240830244496465">
        <ele>466.45999999999998</ele>
        <time>2019-04-26T08:51:53Z</time>
      </trkpt>
      <trkpt lat="50.537767270579934" lon="6.240768888965249">
        <ele>469.17000000000002</ele>
        <time>2019-04-26T08:52:05Z</time>
      </trkpt>
      <trkpt lat="50.537923844531178" lon="6.240720609202981">
        <ele>469.10000000000002</ele>
        <time>2019-04-26T08:52:18Z</time>
      </trkpt>
      <trkpt lat="50.53799819201231" lon="6.240668809041381">
        <ele>466.63</ele>
        <time>2019-04-26T08:52:24Z</time>
      </trkpt>
      <trkpt lat="50.538153676316142" lon="6.240558670833707">
        <ele>464.87</ele>
        <time>2019-04-26T08:52:38Z</time>
      </trkpt>
      <trkpt lat="50.538294408470392" lon="6.240379717200995">
        <ele>462.19999999999999</ele>
        <time>2019-04-26T08:52:52Z</time>
      </trkpt>
      <trkpt lat="50.538317291066051" lon="6.240355242043734">
        <ele>460.62</ele>
        <time>2019-04-26T08:52:54Z</time>
      </trkpt>
      <trkpt lat="50.538345789536834" lon="6.240326156839728">
        <ele>460.60000000000002</ele>
        <time>2019-04-26T08:52:57Z</time>
      </trkpt>
      <trkpt lat="50.538362050428987" lon="6.240309895947576">
        <ele>460.63</ele>
        <time>2019-04-26T08:52:59Z</time>
      </trkpt>
      <trkpt lat="50.538415694609284" lon="6.240241331979632">
        <ele>459.54000000000002</ele>
        <time>2019-04-26T08:53:05Z</time>
      </trkpt>
      <trkpt lat="50.538447126746178" lon="6.240229932591319">
        <ele>459.57999999999998</ele>
        <time>2019-04-26T08:53:08Z</time>
      </trkpt>
      <trkpt lat="50.538503285497427" lon="6.240199003368616">
        <ele>458</ele>
        <time>2019-04-26T08:53:13Z</time>
      </trkpt>
      <trkpt lat="50.538671342656016" lon="6.240119710564613">
        <ele>455.56</ele>
        <time>2019-04-26T08:53:27Z</time>
      </trkpt>
      <trkpt lat="50.538882566615939" lon="6.240173857659102">
        <ele>454.85000000000002</ele>
        <time>2019-04-26T08:53:43Z</time>
      </trkpt>
      <trkpt lat="50.539092868566513" lon="6.240152902901173">
        <ele>454.77999999999997</ele>
        <time>2019-04-26T08:53:56Z</time>
      </trkpt>
      <trkpt lat="50.539124049246311" lon="6.240135719999671">
        <ele>454.77999999999997</ele>
        <time>2019-04-26T08:53:58Z</time>
      </trkpt>
      <trkpt lat="50.539183309301734" lon="6.239713607355952">
        <ele>453.88999999999999</ele>
        <time>2019-04-26T08:54:14Z</time>
      </trkpt>
      <trkpt lat="50.539204431697726" lon="6.239255117252469">
        <ele>453.89999999999998</ele>
        <time>2019-04-26T08:54:33Z</time>
      </trkpt>
      <trkpt lat="50.539212813600898" lon="6.238935682922602">
        <ele>453.92000000000002</ele>
        <time>2019-04-26T08:54:48Z</time>
      </trkpt>
      <trkpt lat="50.539217591285706" lon="6.238843062892556">
        <ele>455.25999999999999</ele>
        <time>2019-04-26T08:54:52Z</time>
      </trkpt>
      <trkpt lat="50.539241395890713" lon="6.238507283851504">
        <ele>455.31</ele>
        <time>2019-04-26T08:55:07Z</time>
      </trkpt>
      <trkpt lat="50.53929059766233" lon="6.238302765414119">
        <ele>455.35000000000002</ele>
        <time>2019-04-26T08:55:19Z</time>
      </trkpt>
      <trkpt lat="50.539343906566501" lon="6.238289102911949">
        <ele>455.36000000000001</ele>
        <time>2019-04-26T08:55:24Z</time>
      </trkpt>
      <trkpt lat="50.53958329372108" lon="6.238256748765707">
        <ele>455.38999999999999</ele>
        <time>2019-04-26T08:55:38Z</time>
      </trkpt>
      <trkpt lat="50.539706591516733" lon="6.238292623311281">
        <ele>456.24000000000001</ele>
        <time>2019-04-26T08:55:51Z</time>
      </trkpt>
      <trkpt lat="50.539826201274991" lon="6.238380465656519">
        <ele>456.52999999999997</ele>
        <time>2019-04-26T08:56:04Z</time>
      </trkpt>
      <trkpt lat="50.539960479363799" lon="6.238491861149669">
        <ele>456.41000000000003</ele>
        <time>2019-04-26T08:56:17Z</time>
      </trkpt>
      <trkpt lat="50.540088135749102" lon="6.238574339076877">
        <ele>456.39999999999998</ele>
        <time>2019-04-26T08:56:27Z</time>
      </trkpt>
      <trkpt lat="50.540150245651603" lon="6.238642651587725">
        <ele>456.38999999999999</ele>
        <time>2019-04-26T08:56:32Z</time>
      </trkpt>
      <trkpt lat="50.540320482105017" lon="6.238770894706249">
        <ele>456.32999999999998</ele>
        <time>2019-04-26T08:56:45Z</time>
      </trkpt>
      <trkpt lat="50.540345292538404" lon="6.238771062344313">
        <ele>456.30000000000001</ele>
        <time>2019-04-26T08:56:47Z</time>
      </trkpt>
      <trkpt lat="50.540370354428887" lon="6.238753292709589">
        <ele>454.02999999999997</ele>
        <time>2019-04-26T08:56:49Z</time>
      </trkpt>
      <trkpt lat="50.540399523451924" lon="6.238750442862511">
        <ele>454.01999999999998</ele>
        <time>2019-04-26T08:56:52Z</time>
      </trkpt>
      <trkpt lat="50.540526006370783" lon="6.238723369315267">
        <ele>454.01999999999998</ele>
        <time>2019-04-26T08:57:08Z</time>
      </trkpt>
      <trkpt lat="50.540566239506006" lon="6.238240152597427">
        <ele>457.16000000000003</ele>
        <time>2019-04-26T09:16:28Z</time>
      </trkpt>
      <trkpt lat="50.540463980287313" lon="6.237997747957707">
        <ele>458.92000000000002</ele>
        <time>2019-04-26T09:16:42Z</time>
      </trkpt>
      <trkpt lat="50.540460543707013" lon="6.237974278628826">
        <ele>458.89999999999998</ele>
        <time>2019-04-26T09:16:44Z</time>
      </trkpt>
      <trkpt lat="50.540395248681307" lon="6.237750565633178">
        <ele>461.47000000000003</ele>
        <time>2019-04-26T09:16:59Z</time>
      </trkpt>
      <trkpt lat="50.540392315015197" lon="6.237712930887938">
        <ele>464.32999999999998</ele>
        <time>2019-04-26T09:17:01Z</time>
      </trkpt>
      <trkpt lat="50.540388794615865" lon="6.237633638083935">
        <ele>460.95999999999998</ele>
        <time>2019-04-26T09:17:05Z</time>
      </trkpt>
      <trkpt lat="50.540390219539404" lon="6.23761628754437">
        <ele>460.97000000000003</ele>
        <time>2019-04-26T09:17:06Z</time>
      </trkpt>
      <trkpt lat="50.540392650291324" lon="6.237601535394788">
        <ele>464.93000000000001</ele>
        <time>2019-04-26T09:17:07Z</time>
      </trkpt>
      <trkpt lat="50.540392734110355" lon="6.237583933398128">
        <ele>464.88</ele>
        <time>2019-04-26T09:17:08Z</time>
      </trkpt>
      <trkpt lat="50.540403798222542" lon="6.237238263711333">
        <ele>464.82999999999998</ele>
        <time>2019-04-26T09:17:23Z</time>
      </trkpt>
      <trkpt lat="50.54042961448431" lon="6.237093508243561">
        <ele>465.88</ele>
        <time>2019-04-26T09:17:31Z</time>
      </trkpt>
      <trkpt lat="50.540469260886312" lon="6.236827298998833">
        <ele>468.18000000000001</ele>
        <time>2019-04-26T09:17:44Z</time>
      </trkpt>
      <trkpt lat="50.540471775457263" lon="6.236813133582473">
        <ele>468.19</ele>
        <time>2019-04-26T09:17:45Z</time>
      </trkpt>
      <trkpt lat="50.540517456829548" lon="6.23641817830503">
        <ele>470.44999999999999</ele>
        <time>2019-04-26T09:18:00Z</time>
      </trkpt>
      <trkpt lat="50.540619296953082" lon="6.236092373728752">
        <ele>472.17000000000002</ele>
        <time>2019-04-26T09:18:15Z</time>
      </trkpt>
      <trkpt lat="50.540707809850574" lon="6.235790541395545">
        <ele>475.36000000000001</ele>
        <time>2019-04-26T09:18:31Z</time>
      </trkpt>
      <trkpt lat="50.540748462080956" lon="6.235574707388878">
        <ele>476.88999999999999</ele>
        <time>2019-04-26T09:18:43Z</time>
      </trkpt>
      <trkpt lat="50.540726250037551" lon="6.235216716304421">
        <ele>478.44</ele>
        <time>2019-04-26T09:18:58Z</time>
      </trkpt>
      <trkpt lat="50.540720131248236" lon="6.23498747125268">
        <ele>481.17000000000002</ele>
        <time>2019-04-26T09:19:09Z</time>
      </trkpt>
      <trkpt lat="50.540668414905667" lon="6.234714305028319">
        <ele>481.85000000000002</ele>
        <time>2019-04-26T09:19:25Z</time>
      </trkpt>
      <trkpt lat="50.540619632229209" lon="6.234360337257385">
        <ele>484.14999999999998</ele>
        <time>2019-04-26T09:19:44Z</time>
      </trkpt>
      <trkpt lat="50.540577722713351" lon="6.23414165340364">
        <ele>484.88999999999999</ele>
        <time>2019-04-26T09:19:52Z</time>
      </trkpt>
      <trkpt lat="50.540528437122703" lon="6.23403218574822">
        <ele>486.89999999999998</ele>
        <time>2019-04-26T09:19:59Z</time>
      </trkpt>
      <trkpt lat="50.540405726060271" lon="6.23373219743371">
        <ele>487.47000000000003</ele>
        <time>2019-04-26T09:20:13Z</time>
      </trkpt>
      <trkpt lat="50.540265580639243" lon="6.233445536345244">
        <ele>488.88999999999999</ele>
        <time>2019-04-26T09:20:31Z</time>
      </trkpt>
      <trkpt lat="50.54017991758883" lon="6.233084527775645">
        <ele>491.06</ele>
        <time>2019-04-26T09:20:49Z</time>
      </trkpt>
      <trkpt lat="50.540160974487662" lon="6.232685213908553">
        <ele>492.67000000000002</ele>
        <time>2019-04-26T09:21:00Z</time>
      </trkpt>
      <trkpt lat="50.540100457146764" lon="6.232432499527931">
        <ele>494.26999999999998</ele>
        <time>2019-04-26T09:21:09Z</time>
      </trkpt>
      <trkpt lat="50.539993336424232" lon="6.23210116289556">
        <ele>494.99000000000001</ele>
        <time>2019-04-26T09:21:24Z</time>
      </trkpt>
      <trkpt lat="50.539900213479996" lon="6.231954814866185">
        <ele>496.69</ele>
        <time>2019-04-26T09:21:35Z</time>
      </trkpt>
      <trkpt lat="50.539760319516063" lon="6.231689276173711">
        <ele>498.27999999999997</ele>
        <time>2019-04-26T09:21:49Z</time>
      </trkpt>
      <trkpt lat="50.539644481614232" lon="6.231482410803437">
        <ele>500.07999999999998</ele>
        <time>2019-04-26T09:21:59Z</time>
      </trkpt>
      <trkpt lat="50.539610618725419" lon="6.231453912332654">
        <ele>500.06999999999999</ele>
        <time>2019-04-26T09:22:02Z</time>
      </trkpt>
      <trkpt lat="50.539567954838276" lon="6.231408650055528">
        <ele>500.87</ele>
        <time>2019-04-26T09:22:06Z</time>
      </trkpt>
      <trkpt lat="50.539460079744458" lon="6.231326088309288">
        <ele>501.56</ele>
        <time>2019-04-26T09:22:16Z</time>
      </trkpt>
      <trkpt lat="50.539324712008238" lon="6.231265738606453">
        <ele>503.26999999999998</ele>
        <time>2019-04-26T09:22:30Z</time>
      </trkpt>
      <trkpt lat="50.539126563817263" lon="6.231232630088925">
        <ele>504.92000000000002</ele>
        <time>2019-04-26T09:22:45Z</time>
      </trkpt>
      <trkpt lat="50.538978958502412" lon="6.231252327561379">
        <ele>506.42000000000002</ele>
        <time>2019-04-26T09:22:56Z</time>
      </trkpt>
      <trkpt lat="50.538854235783219" lon="6.23121234588325">
        <ele>507.00999999999999</ele>
        <time>2019-04-26T09:23:08Z</time>
      </trkpt>
      <trkpt lat="50.538821630179882" lon="6.23107060790062">
        <ele>508.79000000000002</ele>
        <time>2019-04-26T09:23:17Z</time>
      </trkpt>
      <trkpt lat="50.538842165842652" lon="6.230938844382763">
        <ele>509.45999999999998</ele>
        <time>2019-04-26T09:23:29Z</time>
      </trkpt>
      <trkpt lat="50.538869658485055" lon="6.230508014559746">
        <ele>511.58999999999997</ele>
        <time>2019-04-26T09:23:49Z</time>
      </trkpt>
      <trkpt lat="50.538832526654005" lon="6.230263765901327">
        <ele>512.26999999999998</ele>
        <time>2019-04-26T09:23:57Z</time>
      </trkpt>
      <trkpt lat="50.538771757856011" lon="6.229932680726051">
        <ele>513.86000000000001</ele>
        <time>2019-04-26T09:24:09Z</time>
      </trkpt>
      <trkpt lat="50.538620045408607" lon="6.22974450699985">
        <ele>514.55999999999995</ele>
        <time>2019-04-26T09:24:21Z</time>
      </trkpt>
      <trkpt lat="50.538398930802941" lon="6.22963453643024">
        <ele>516.25</ele>
        <time>2019-04-26T09:24:35Z</time>
      </trkpt>
      <trkpt lat="50.538231292739511" lon="6.229602852836251">
        <ele>517.76999999999998</ele>
        <time>2019-04-26T09:24:45Z</time>
      </trkpt>
      <trkpt lat="50.538211679086089" lon="6.229452649131417">
        <ele>518.49000000000001</ele>
        <time>2019-04-26T09:25:02Z</time>
      </trkpt>
      <trkpt lat="50.538184521719813" lon="6.229344522580504">
        <ele>518.47000000000003</ele>
        <time>2019-04-26T09:25:10Z</time>
      </trkpt>
      <trkpt lat="50.53815602324903" lon="6.229097340255976">
        <ele>519.40999999999997</ele>
        <time>2019-04-26T09:25:25Z</time>
      </trkpt>
      <trkpt lat="50.538147557526827" lon="6.229051910340786">
        <ele>516.51999999999998</ele>
        <time>2019-04-26T09:25:28Z</time>
      </trkpt>
      <trkpt lat="50.538131715729833" lon="6.228819731622934">
        <ele>519.70000000000005</ele>
        <time>2019-04-26T09:25:42Z</time>
      </trkpt>
      <trkpt lat="50.538156693801284" lon="6.228301813825965">
        <ele>519.67999999999995</ele>
        <time>2019-04-26T09:26:05Z</time>
      </trkpt>
      <trkpt lat="50.538167171180248" lon="6.228279685601592">
        <ele>519.67999999999995</ele>
        <time>2019-04-26T09:26:06Z</time>
      </trkpt>
      <trkpt lat="50.538312932476401" lon="6.22798983938992">
        <ele>519.65999999999997</ele>
        <time>2019-04-26T09:26:27Z</time>
      </trkpt>
      <trkpt lat="50.538348304107785" lon="6.227898560464382">
        <ele>517.28999999999996</ele>
        <time>2019-04-26T09:26:34Z</time>
      </trkpt>
      <trkpt lat="50.538498675450683" lon="6.227622628211975">
        <ele>516.55999999999995</ele>
        <time>2019-04-26T09:26:58Z</time>
      </trkpt>
      <trkpt lat="50.53871694020927" lon="6.227347869426012">
        <ele>515.86000000000001</ele>
        <time>2019-04-26T09:27:18Z</time>
      </trkpt>
      <trkpt lat="50.538914753124118" lon="6.227178890258074">
        <ele>515.88999999999999</ele>
        <time>2019-04-26T09:27:35Z</time>
      </trkpt>
      <trkpt lat="50.539157073944807" lon="6.226944029331207">
        <ele>515.94000000000005</ele>
        <time>2019-04-26T09:27:51Z</time>
      </trkpt>
      <trkpt lat="50.53923980332911" lon="6.226903628557921">
        <ele>515.98000000000002</ele>
        <time>2019-04-26T09:28:00Z</time>
      </trkpt>
      <trkpt lat="50.539401238784194" lon="6.227026591077447">
        <ele>515.28999999999996</ele>
        <time>2019-04-26T09:28:17Z</time>
      </trkpt>
      <trkpt lat="50.539544653147459" lon="6.227239659056068">
        <ele>514.54999999999995</ele>
        <time>2019-04-26T09:28:33Z</time>
      </trkpt>
      <trkpt lat="50.539553873240948" lon="6.227254495024681">
        <ele>514.54999999999995</ele>
        <time>2019-04-26T09:28:34Z</time>
      </trkpt>
      <trkpt lat="50.539683206006885" lon="6.227505952119827">
        <ele>512.28999999999996</ele>
        <time>2019-04-26T09:29:18Z</time>
      </trkpt>
      <trkpt lat="50.539684211835265" lon="6.227508885785937">
        <ele>515.28999999999996</ele>
        <time>2019-04-26T09:29:19Z</time>
      </trkpt>
      <trkpt lat="50.539685301482677" lon="6.227508718147874">
        <ele>515.29999999999995</ele>
        <time>2019-04-26T09:29:20Z</time>
      </trkpt>
      <trkpt lat="50.539686055853963" lon="6.22750855050981">
        <ele>512.76999999999998</ele>
        <time>2019-04-26T09:29:22Z</time>
      </trkpt>
      <trkpt lat="50.537381870672107" lon="6.221973141655326">
        <ele>513.39999999999998</ele>
        <time>2019-04-26T09:30:48Z</time>
      </trkpt>
      <trkpt lat="50.537893921136856" lon="6.221385402604938">
        <ele>513.59000000000003</ele>
        <time>2019-04-26T09:31:15Z</time>
      </trkpt>
      <trkpt lat="50.539311971515417" lon="6.219292441383004">
        <ele>520.20000000000005</ele>
        <time>2019-04-26T10:13:37Z</time>
      </trkpt>
      <trkpt lat="50.540569592267275" lon="6.219579186290503">
        <ele>518.96000000000004</ele>
        <time>2019-04-26T10:30:16Z</time>
      </trkpt>
      <trkpt lat="50.542743522673845" lon="6.219249442219734">
        <ele>495.63</ele>
        <time>2019-04-26T10:47:15Z</time>
      </trkpt>
      <trkpt lat="50.543732922524214" lon="6.220498429611325">
        <ele>497.72000000000003</ele>
        <time>2019-04-26T10:47:33Z</time>
      </trkpt>
      <trkpt lat="50.544728776440024" lon="6.221170322969556">
        <ele>499.75999999999999</ele>
        <time>2019-04-26T10:47:38Z</time>
      </trkpt>
      <trkpt lat="50.544973108917475" lon="6.221384312957525">
        <ele>504.36000000000001</ele>
        <time>2019-04-26T10:48:10Z</time>
      </trkpt>
      <trkpt lat="50.545168407261372" lon="6.221326310187578">
        <ele>504.99000000000001</ele>
        <time>2019-04-26T10:48:25Z</time>
      </trkpt>
      <trkpt lat="50.545329255983233" lon="6.2212750967592">
        <ele>505.68000000000001</ele>
        <time>2019-04-26T10:48:37Z</time>
      </trkpt>
      <trkpt lat="50.545508041977882" lon="6.221187589690089">
        <ele>505.61000000000001</ele>
        <time>2019-04-26T10:48:49Z</time>
      </trkpt>
      <trkpt lat="50.545701663941145" lon="6.221027243882418">
        <ele>507.30000000000001</ele>
        <time>2019-04-26T10:49:04Z</time>
      </trkpt>
      <trkpt lat="50.545880952849984" lon="6.22084560804069">
        <ele>508.07999999999998</ele>
        <time>2019-04-26T10:49:19Z</time>
      </trkpt>
      <trkpt lat="50.546018080785871" lon="6.22060613706708">
        <ele>508.83999999999997</ele>
        <time>2019-04-26T10:49:34Z</time>
      </trkpt>
      <trkpt lat="50.546072144061327" lon="6.220545032992959">
        <ele>509.63999999999999</ele>
        <time>2019-04-26T10:49:39Z</time>
      </trkpt>
      <trkpt lat="50.546238273382187" lon="6.220341101288796">
        <ele>509.64999999999998</ele>
        <time>2019-04-26T10:49:55Z</time>
      </trkpt>
      <trkpt lat="50.546405911445618" lon="6.220205230638385">
        <ele>510.49000000000001</ele>
        <time>2019-04-26T10:50:09Z</time>
      </trkpt>
      <trkpt lat="50.54670849815011" lon="6.219874899834395">
        <ele>510.56</ele>
        <time>2019-04-26T10:50:37Z</time>
      </trkpt>
      <trkpt lat="50.546776475384831" lon="6.219674069434404">
        <ele>511.44</ele>
        <time>2019-04-26T10:50:50Z</time>
      </trkpt>
      <trkpt lat="50.546863060444593" lon="6.21922723017633">
        <ele>512.53999999999996</ele>
        <time>2019-04-26T10:51:12Z</time>
      </trkpt>
      <trkpt lat="50.546956518664956" lon="6.218791287392378">
        <ele>512.41999999999996</ele>
        <time>2019-04-26T10:51:33Z</time>
      </trkpt>
      <trkpt lat="50.547058023512363" lon="6.218522898852825">
        <ele>513.11000000000001</ele>
        <time>2019-04-26T10:51:48Z</time>
      </trkpt>
      <trkpt lat="50.547183752059937" lon="6.218217797577381">
        <ele>514.08000000000004</ele>
        <time>2019-04-26T10:52:03Z</time>
      </trkpt>
      <trkpt lat="50.547193307429552" lon="6.218142779543996">
        <ele>515.66999999999996</ele>
        <time>2019-04-26T10:52:06Z</time>
      </trkpt>
      <trkpt lat="50.547266732901335" lon="6.217964831739664">
        <ele>513.33000000000004</ele>
        <time>2019-04-26T10:52:15Z</time>
      </trkpt>
      <trkpt lat="50.547438813373446" lon="6.217693006619811">
        <ele>513.19000000000005</ele>
        <time>2019-04-26T10:52:31Z</time>
      </trkpt>
      <trkpt lat="50.547459684312344" lon="6.217657383531332">
        <ele>513.17999999999995</ele>
        <time>2019-04-26T10:52:33Z</time>
      </trkpt>
      <trkpt lat="50.547522716224194" lon="6.21753073297441">
        <ele>513.13999999999999</ele>
        <time>2019-04-26T10:52:41Z</time>
      </trkpt>
      <trkpt lat="50.547564039006829" lon="6.21746426448226">
        <ele>513.12</ele>
        <time>2019-04-26T10:52:46Z</time>
      </trkpt>
      <trkpt lat="50.547692282125354" lon="6.21715497225523">
        <ele>513.04999999999995</ele>
        <time>2019-04-26T10:53:03Z</time>
      </trkpt>
      <trkpt lat="50.547824297100306" lon="6.216901168227196">
        <ele>512.98000000000002</ele>
        <time>2019-04-26T10:53:19Z</time>
      </trkpt>
      <trkpt lat="50.547882635146379" lon="6.216778373345733">
        <ele>512.92999999999995</ele>
        <time>2019-04-26T10:53:27Z</time>
      </trkpt>
      <trkpt lat="50.548049015924335" lon="6.21646648272872">
        <ele>512.80999999999995</ele>
        <time>2019-04-26T10:53:45Z</time>
      </trkpt>
      <trkpt lat="50.548075502738357" lon="6.216421891003847">
        <ele>512.78999999999996</ele>
        <time>2019-04-26T10:53:48Z</time>
      </trkpt>
      <trkpt lat="50.548103833571076" lon="6.216365648433566">
        <ele>512.75999999999999</ele>
        <time>2019-04-26T10:53:52Z</time>
      </trkpt>
      <trkpt lat="50.548205254599452" lon="6.216058200225234">
        <ele>515.05999999999995</ele>
        <time>2019-04-26T10:54:06Z</time>
      </trkpt>
      <trkpt lat="50.548208942636847" lon="6.216032467782497">
        <ele>515.04999999999995</ele>
        <time>2019-04-26T10:54:07Z</time>
      </trkpt>
      <trkpt lat="50.548227969557047" lon="6.215994581580162">
        <ele>515.02999999999997</ele>
        <time>2019-04-26T10:54:09Z</time>
      </trkpt>
      <trkpt lat="50.548320421949029" lon="6.215747902169824">
        <ele>514.92999999999995</ele>
        <time>2019-04-26T10:54:23Z</time>
      </trkpt>
      <trkpt lat="50.548460735008121" lon="6.215477250516415">
        <ele>514.86000000000001</ele>
        <time>2019-04-26T10:54:37Z</time>
      </trkpt>
      <trkpt lat="50.548564419150352" lon="6.21523174457252">
        <ele>514.77999999999997</ele>
        <time>2019-04-26T10:54:51Z</time>
      </trkpt>
      <trkpt lat="50.548642538487911" lon="6.214954387396574">
        <ele>514.70000000000005</ele>
        <time>2019-04-26T10:55:03Z</time>
      </trkpt>
      <trkpt lat="50.54868352599442" lon="6.214814744889736">
        <ele>514.63</ele>
        <time>2019-04-26T10:55:10Z</time>
      </trkpt>
      <trkpt lat="50.54873432032764" lon="6.214627074077725">
        <ele>514.60000000000002</ele>
        <time>2019-04-26T10:55:20Z</time>
      </trkpt>
      <trkpt lat="50.548767009750009" lon="6.214504614472389">
        <ele>514.57000000000005</ele>
        <time>2019-04-26T10:55:27Z</time>
      </trkpt>
      <trkpt lat="50.548804309219122" lon="6.214402271434665">
        <ele>515.36000000000001</ele>
        <time>2019-04-26T10:55:33Z</time>
      </trkpt>
      <trkpt lat="50.548794167116284" lon="6.214106557890773">
        <ele>515.30999999999995</ele>
        <time>2019-04-26T10:55:46Z</time>
      </trkpt>
      <trkpt lat="50.548699367791414" lon="6.213717302307487">
        <ele>515.26999999999998</ele>
        <time>2019-04-26T10:56:03Z</time>
      </trkpt>
      <trkpt lat="50.54862292483449" lon="6.213541366159916">
        <ele>515.21000000000004</ele>
        <time>2019-04-26T10:56:15Z</time>
      </trkpt>
      <trkpt lat="50.548539441078901" lon="6.213336428627372">
        <ele>515.20000000000005</ele>
        <time>2019-04-26T10:56:28Z</time>
      </trkpt>
      <trkpt lat="50.548451766371727" lon="6.213175663724542">
        <ele>512.88</ele>
        <time>2019-04-26T10:56:38Z</time>
      </trkpt>
      <trkpt lat="50.548314470797777" lon="6.212969636544585">
        <ele>512.86000000000001</ele>
        <time>2019-04-26T10:56:53Z</time>
      </trkpt>
      <trkpt lat="50.548151610419154" lon="6.212832676246762">
        <ele>512.79999999999995</ele>
        <time>2019-04-26T10:57:08Z</time>
      </trkpt>
      <trkpt lat="50.548000987619162" lon="6.212787916883826">
        <ele>512.69000000000005</ele>
        <time>2019-04-26T10:57:22Z</time>
      </trkpt>
      <trkpt lat="50.547861680388451" lon="6.212771655991674">
        <ele>512.62</ele>
        <time>2019-04-26T10:57:35Z</time>
      </trkpt>
      <trkpt lat="50.547562194988132" lon="6.212738966569305">
        <ele>512.38999999999999</ele>
        <time>2019-04-26T10:58:00Z</time>
      </trkpt>
      <trkpt lat="50.547536294907331" lon="6.212728321552277">
        <ele>512.36000000000001</ele>
        <time>2019-04-26T10:58:03Z</time>
      </trkpt>
      <trkpt lat="50.547298835590482" lon="6.212707869708538">
        <ele>512.19000000000005</ele>
        <time>2019-04-26T10:58:20Z</time>
      </trkpt>
      <trkpt lat="50.547087946906686" lon="6.212665038183332">
        <ele>512.00999999999999</ele>
        <time>2019-04-26T10:58:35Z</time>
      </trkpt>
      <trkpt lat="50.546976635232568" lon="6.212626313790679">
        <ele>511.95999999999998</ele>
        <time>2019-04-26T10:58:44Z</time>
      </trkpt>
      <trkpt lat="50.546757113188505" lon="6.212519612163305">
        <ele>511.70999999999998</ele>
        <time>2019-04-26T10:59:04Z</time>
      </trkpt>
      <trkpt lat="50.546476738527417" lon="6.21226723305881">
        <ele>511.39999999999998</ele>
        <time>2019-04-26T10:59:27Z</time>
      </trkpt>
      <trkpt lat="50.546258138492703" lon="6.211987696588039">
        <ele>511.20999999999998</ele>
        <time>2019-04-26T10:59:46Z</time>
      </trkpt>
      <trkpt lat="50.546050183475018" lon="6.211768174543977">
        <ele>511</ele>
        <time>2019-04-26T11:00:05Z</time>
      </trkpt>
      <trkpt lat="50.545985978096724" lon="6.21171704493463">
        <ele>510.94999999999999</ele>
        <time>2019-04-26T11:00:11Z</time>
      </trkpt>
      <trkpt lat="50.545816663652658" lon="6.21150741353631">
        <ele>510.86000000000001</ele>
        <time>2019-04-26T11:00:25Z</time>
      </trkpt>
      <trkpt lat="50.545618766918778" lon="6.211361987516284">
        <ele>510.77999999999997</ele>
        <time>2019-04-26T11:00:41Z</time>
      </trkpt>
      <trkpt lat="50.545479375869036" lon="6.211316054686904">
        <ele>510.67000000000002</ele>
        <time>2019-04-26T11:00:53Z</time>
      </trkpt>
      <trkpt lat="50.545204617083073" lon="6.211084797978401">
        <ele>510.57999999999998</ele>
        <time>2019-04-26T11:01:14Z</time>
      </trkpt>
      <trkpt lat="50.544941928237677" lon="6.210891343653202">
        <ele>510.50999999999999</ele>
        <time>2019-04-26T11:01:34Z</time>
      </trkpt>
      <trkpt lat="50.544873112812638" lon="6.210836274549365">
        <ele>510.45999999999998</ele>
        <time>2019-04-26T11:01:39Z</time>
      </trkpt>
      <trkpt lat="50.544742774218321" lon="6.210686322301626">
        <ele>510.38999999999999</ele>
        <time>2019-04-26T11:01:50Z</time>
      </trkpt>
      <trkpt lat="50.544617548584938" lon="6.210466800257564">
        <ele>510.38</ele>
        <time>2019-04-26T11:02:06Z</time>
      </trkpt>
      <trkpt lat="50.544418394565582" lon="6.210186509415507">
        <ele>510.19</ele>
        <time>2019-04-26T11:02:28Z</time>
      </trkpt>
      <trkpt lat="50.5442516785115" lon="6.209812927991152">
        <ele>509.99000000000001</ele>
        <time>2019-04-26T11:02:50Z</time>
      </trkpt>
      <trkpt lat="50.544237680733204" lon="6.209762217476964">
        <ele>509.94</ele>
        <time>2019-04-26T11:02:53Z</time>
      </trkpt>
      <trkpt lat="50.544099798426032" lon="6.209591142833233">
        <ele>509.83999999999997</ele>
        <time>2019-04-26T11:03:04Z</time>
      </trkpt>
      <trkpt lat="50.54389838129282" lon="6.209342367947102">
        <ele>509.69999999999999</ele>
        <time>2019-04-26T11:03:21Z</time>
      </trkpt>
      <trkpt lat="50.54373417980969" lon="6.20893039740622">
        <ele>509.54000000000002</ele>
        <time>2019-04-26T11:03:41Z</time>
      </trkpt>
      <trkpt lat="50.543600656092167" lon="6.208468889817596">
        <ele>509.33999999999997</ele>
        <time>2019-04-26T11:04:04Z</time>
      </trkpt>
      <trkpt lat="50.543514071032405" lon="6.208192789927125">
        <ele>509.18000000000001</ele>
        <time>2019-04-26T11:04:23Z</time>
      </trkpt>
      <trkpt lat="50.54341608658433" lon="6.208000928163528">
        <ele>509.12</ele>
        <time>2019-04-26T11:04:35Z</time>
      </trkpt>
      <trkpt lat="50.543268145993352" lon="6.207776376977563">
        <ele>509.12</ele>
        <time>2019-04-26T11:04:49Z</time>
      </trkpt>
      <trkpt lat="50.543127162382007" lon="6.207505473867059">
        <ele>509.00999999999999</ele>
        <time>2019-04-26T11:05:03Z</time>
      </trkpt>
      <trkpt lat="50.542993722483516" lon="6.207259800285101">
        <ele>508.94999999999999</ele>
        <time>2019-04-26T11:05:16Z</time>
      </trkpt>
      <trkpt lat="50.54286296479404" lon="6.207033488899469">
        <ele>508.97000000000003</ele>
        <time>2019-04-26T11:05:31Z</time>
      </trkpt>
      <trkpt lat="50.542708989232779" lon="6.206803321838379">
        <ele>508.97000000000003</ele>
        <time>2019-04-26T11:05:47Z</time>
      </trkpt>
      <trkpt lat="50.542697925120592" lon="6.206788821145892">
        <ele>501.06</ele>
        <time>2019-04-26T11:05:48Z</time>
      </trkpt>
      <trkpt lat="50.542688788846135" lon="6.20677700266242">
        <ele>509.39999999999998</ele>
        <time>2019-04-26T11:05:49Z</time>
      </trkpt>
      <trkpt lat="50.54256884381175" lon="6.206597043201327">
        <ele>509.41000000000003</ele>
        <time>2019-04-26T11:06:00Z</time>
      </trkpt>
      <trkpt lat="50.542370192706585" lon="6.206295462325215">
        <ele>509.44</ele>
        <time>2019-04-26T11:06:20Z</time>
      </trkpt>
      <trkpt lat="50.542246559634805" lon="6.206039730459452">
        <ele>509.44</ele>
        <time>2019-04-26T11:06:36Z</time>
      </trkpt>
      <trkpt lat="50.542183024808764" lon="6.205975441262126">
        <ele>509.47000000000003</ele>
        <time>2019-04-26T11:06:41Z</time>
      </trkpt>
      <trkpt lat="50.542133152484894" lon="6.205943338572979">
        <ele>509.44</ele>
        <time>2019-04-26T11:06:45Z</time>
      </trkpt>
      <trkpt lat="50.54195411503315" lon="6.205723229795694">
        <ele>509.41000000000003</ele>
        <time>2019-04-26T11:07:01Z</time>
      </trkpt>
      <trkpt lat="50.541818495839834" lon="6.205542432144284">
        <ele>509.38999999999999</ele>
        <time>2019-04-26T11:07:14Z</time>
      </trkpt>
      <trkpt lat="50.541643062606454" lon="6.205323077738285">
        <ele>509.30000000000001</ele>
        <time>2019-04-26T11:07:29Z</time>
      </trkpt>
      <trkpt lat="50.541625544428825" lon="6.205291142687202">
        <ele>509.29000000000002</ele>
        <time>2019-04-26T11:07:31Z</time>
      </trkpt>
      <trkpt lat="50.541475508362055" lon="6.205094335600734">
        <ele>509.17000000000002</ele>
        <time>2019-04-26T11:07:47Z</time>
      </trkpt>
      <trkpt lat="50.54136729799211" lon="6.204953100532293">
        <ele>509.08999999999997</ele>
        <time>2019-04-26T11:07:57Z</time>
      </trkpt>
      <trkpt lat="50.541345840319991" lon="6.204928625375032">
        <ele>509.06999999999999</ele>
        <time>2019-04-26T11:07:59Z</time>
      </trkpt>
      <trkpt lat="50.541203683242202" lon="6.204742211848497">
        <ele>509</ele>
        <time>2019-04-26T11:08:14Z</time>
      </trkpt>
      <trkpt lat="50.540985837578773" lon="6.204521097242832">
        <ele>508.80000000000001</ele>
        <time>2019-04-26T11:08:32Z</time>
      </trkpt>
      <trkpt lat="50.540927667170763" lon="6.204454712569714">
        <ele>506.42000000000002</ele>
        <time>2019-04-26T11:08:38Z</time>
      </trkpt>
      <trkpt lat="50.540743684396148" lon="6.204393105581403">
        <ele>506.94</ele>
        <time>2019-04-26T11:08:52Z</time>
      </trkpt>
      <trkpt lat="50.540524329990149" lon="6.204335018992424">
        <ele>506.76999999999998</ele>
        <time>2019-04-26T11:09:08Z</time>
      </trkpt>
      <trkpt lat="50.540460040792823" lon="6.204318171367049">
        <ele>506.72000000000003</ele>
        <time>2019-04-26T11:09:13Z</time>
      </trkpt>
      <trkpt lat="50.540198609232903" lon="6.204255223274231">
        <ele>506.56999999999999</ele>
        <time>2019-04-26T11:09:31Z</time>
      </trkpt>
      <trkpt lat="50.540190059691668" lon="6.204247763380408">
        <ele>506.56999999999999</ele>
        <time>2019-04-26T11:09:32Z</time>
      </trkpt>
      <trkpt lat="50.54003038443625" lon="6.204191101714969">
        <ele>506.49000000000001</ele>
        <time>2019-04-26T11:09:47Z</time>
      </trkpt>
      <trkpt lat="50.539845814928412" lon="6.204191688448191">
        <ele>506.36000000000001</ele>
        <time>2019-04-26T11:10:04Z</time>
      </trkpt>
      <trkpt lat="50.539582958444953" lon="6.204282715916634">
        <ele>506.22000000000003</ele>
        <time>2019-04-26T11:10:25Z</time>
      </trkpt>
      <trkpt lat="50.539519675076008" lon="6.204264611005783">
        <ele>506.17000000000002</ele>
        <time>2019-04-26T11:10:28Z</time>
      </trkpt>
      <trkpt lat="50.539351031184196" lon="6.204266538843513">
        <ele>506.02999999999997</ele>
        <time>2019-04-26T11:10:43Z</time>
      </trkpt>
      <trkpt lat="50.539105692878366" lon="6.204264359548688">
        <ele>505.75</ele>
        <time>2019-04-26T11:11:01Z</time>
      </trkpt>
      <trkpt lat="50.538802687078714" lon="6.204174086451531">
        <ele>506.19</ele>
        <time>2019-04-26T11:11:21Z</time>
      </trkpt>
      <trkpt lat="50.538589702919126" lon="6.204194538295269">
        <ele>506.82999999999998</ele>
        <time>2019-04-26T11:11:35Z</time>
      </trkpt>
      <trkpt lat="50.538374539464712" lon="6.204145001247525">
        <ele>506.56999999999999</ele>
        <time>2019-04-26T11:11:51Z</time>
      </trkpt>
      <trkpt lat="50.538174882531166" lon="6.203981805592775">
        <ele>507.12</ele>
        <time>2019-04-26T11:12:07Z</time>
      </trkpt>
      <trkpt lat="50.538006238639355" lon="6.203826405107975">
        <ele>508.69</ele>
        <time>2019-04-26T11:12:20Z</time>
      </trkpt>
      <trkpt lat="50.53796156309545" lon="6.203830260783434">
        <ele>508.63999999999999</ele>
        <time>2019-04-26T11:12:23Z</time>
      </trkpt>
      <trkpt lat="50.537833403795958" lon="6.203729510307312">
        <ele>509.27999999999997</ele>
        <time>2019-04-26T11:12:34Z</time>
      </trkpt>
      <trkpt lat="50.537796607241035" lon="6.203698832541704">
        <ele>509.20999999999998</ele>
        <time>2019-04-26T11:12:37Z</time>
      </trkpt>
      <trkpt lat="50.537757044658065" lon="6.203669160604477">
        <ele>509.13</ele>
        <time>2019-04-26T11:12:41Z</time>
      </trkpt>
      <trkpt lat="50.537529559805989" lon="6.203543180599809">
        <ele>510.58999999999997</ele>
        <time>2019-04-26T11:12:59Z</time>
      </trkpt>
      <trkpt lat="50.537333339452744" lon="6.20343572460115">
        <ele>510.25</ele>
        <time>2019-04-26T11:13:14Z</time>
      </trkpt>
      <trkpt lat="50.537135442718863" lon="6.203345283865929">
        <ele>509.92000000000002</ele>
        <time>2019-04-26T11:13:29Z</time>
      </trkpt>
      <trkpt lat="50.537079954519868" lon="6.203316366299987">
        <ele>511.94999999999999</ele>
        <time>2019-04-26T11:13:33Z</time>
      </trkpt>
      <trkpt lat="50.536936707794666" lon="6.203278815373778">
        <ele>509.32999999999998</ele>
        <time>2019-04-26T11:13:45Z</time>
      </trkpt>
      <trkpt lat="50.536875100806355" lon="6.203264314681292">
        <ele>509.25</ele>
        <time>2019-04-26T11:13:50Z</time>
      </trkpt>
      <trkpt lat="50.536719197407365" lon="6.203297004103661">
        <ele>507.22000000000003</ele>
        <time>2019-04-26T11:14:06Z</time>
      </trkpt>
      <trkpt lat="50.536524737253785" lon="6.203410746529698">
        <ele>506.94</ele>
        <time>2019-04-26T11:14:25Z</time>
      </trkpt>
      <trkpt lat="50.536425244063139" lon="6.203471263870597">
        <ele>506.81</ele>
        <time>2019-04-26T11:14:32Z</time>
      </trkpt>
      <trkpt lat="50.536218211054802" lon="6.203561872243881">
        <ele>506.52999999999997</ele>
        <time>2019-04-26T11:14:48Z</time>
      </trkpt>
      <trkpt lat="50.536020314320922" lon="6.203647283837199">
        <ele>506.23000000000002</ele>
        <time>2019-04-26T11:15:03Z</time>
      </trkpt>
      <trkpt lat="50.536000533029437" lon="6.203660108149052">
        <ele>506.20999999999998</ele>
        <time>2019-04-26T11:15:04Z</time>
      </trkpt>
      <trkpt lat="50.535939261317253" lon="6.203699754551053">
        <ele>506.13999999999999</ele>
        <time>2019-04-26T11:15:08Z</time>
      </trkpt>
      <trkpt lat="50.535866506397724" lon="6.203724984079599">
        <ele>508.44</ele>
        <time>2019-04-26T11:15:13Z</time>
      </trkpt>
      <trkpt lat="50.535719487816095" lon="6.20371961966157">
        <ele>509.89999999999998</ele>
        <time>2019-04-26T11:15:25Z</time>
      </trkpt>
      <trkpt lat="50.535454535856843" lon="6.203676117584109">
        <ele>511.44</ele>
        <time>2019-04-26T11:15:41Z</time>
      </trkpt>
      <trkpt lat="50.535248089581728" lon="6.203525327146053">
        <ele>512.79999999999995</ele>
        <time>2019-04-26T11:15:56Z</time>
      </trkpt>
      <trkpt lat="50.535066286101937" lon="6.203307649120688">
        <ele>513.21000000000004</ele>
        <time>2019-04-26T11:16:14Z</time>
      </trkpt>
      <trkpt lat="50.534939048811793" lon="6.203232295811176">
        <ele>514.52999999999997</ele>
        <time>2019-04-26T11:16:24Z</time>
      </trkpt>
      <trkpt lat="50.534897306933999" lon="6.203178986907005">
        <ele>514.46000000000004</ele>
        <time>2019-04-26T11:16:28Z</time>
      </trkpt>
      <trkpt lat="50.534854475408792" lon="6.203125007450581">
        <ele>515.16999999999996</ele>
        <time>2019-04-26T11:16:33Z</time>
      </trkpt>
      <trkpt lat="50.534662026911974" lon="6.203004224225879">
        <ele>517.41999999999996</ele>
        <time>2019-04-26T11:16:48Z</time>
      </trkpt>
      <trkpt lat="50.53437645547092" lon="6.203011935576797">
        <ele>518.95000000000005</ele>
        <time>2019-04-26T11:17:06Z</time>
      </trkpt>
      <trkpt lat="50.534157603979111" lon="6.202889895066619">
        <ele>518.67999999999995</ele>
        <time>2019-04-26T11:17:23Z</time>
      </trkpt>
      <trkpt lat="50.534003796055913" lon="6.202833820134401">
        <ele>518.48000000000002</ele>
        <time>2019-04-26T11:17:37Z</time>
      </trkpt>
      <trkpt lat="50.533977812156081" lon="6.202815715223551">
        <ele>518.44000000000005</ele>
        <time>2019-04-26T11:17:40Z</time>
      </trkpt>
      <trkpt lat="50.533917797729373" lon="6.202777996659279">
        <ele>518.38</ele>
        <time>2019-04-26T11:17:45Z</time>
      </trkpt>
      <trkpt lat="50.533846216276288" lon="6.20273700915277">
        <ele>518.33000000000004</ele>
        <time>2019-04-26T11:17:50Z</time>
      </trkpt>
      <trkpt lat="50.53370263427496" lon="6.202608095481992">
        <ele>518.23000000000002</ele>
        <time>2019-04-26T11:17:57Z</time>
      </trkpt>
      <trkpt lat="50.533637842163444" lon="6.202607173472643">
        <ele>518.21000000000004</ele>
        <time>2019-04-26T11:18:00Z</time>
      </trkpt>
      <trkpt lat="50.533466767519712" lon="6.202543638646603">
        <ele>518.16999999999996</ele>
        <time>2019-04-26T11:18:13Z</time>
      </trkpt>
      <trkpt lat="50.533287730067968" lon="6.202472392469645">
        <ele>518.11000000000001</ele>
        <time>2019-04-26T11:18:26Z</time>
      </trkpt>
      <trkpt lat="50.533253028988838" lon="6.202452946454287">
        <ele>518.10000000000002</ele>
        <time>2019-04-26T11:18:29Z</time>
      </trkpt>
      <trkpt lat="50.533088156953454" lon="6.202329397201538">
        <ele>518.09000000000003</ele>
        <time>2019-04-26T11:18:43Z</time>
      </trkpt>
      <trkpt lat="50.532972486689687" lon="6.202281201258302">
        <ele>518.08000000000004</ele>
        <time>2019-04-26T11:18:51Z</time>
      </trkpt>
      <trkpt lat="50.532794538885355" lon="6.202241387218237">
        <ele>520.04999999999995</ele>
        <time>2019-04-26T11:19:03Z</time>
      </trkpt>
      <trkpt lat="50.532719353213906" lon="6.202213056385517">
        <ele>522.17999999999995</ele>
        <time>2019-04-26T11:19:07Z</time>
      </trkpt>
      <trkpt lat="50.532704517245293" lon="6.202206686139107">
        <ele>518.74000000000001</ele>
        <time>2019-04-26T11:19:08Z</time>
      </trkpt>
      <trkpt lat="50.532638300210238" lon="6.20217164978385">
        <ele>522.76999999999998</ele>
        <time>2019-04-26T11:19:13Z</time>
      </trkpt>
      <trkpt lat="50.532552301883698" lon="6.20210082270205">
        <ele>522.74000000000001</ele>
        <time>2019-04-26T11:19:21Z</time>
      </trkpt>
      <trkpt lat="50.532523300498724" lon="6.202047178521752">
        <ele>520.28999999999996</ele>
        <time>2019-04-26T11:19:24Z</time>
      </trkpt>
      <trkpt lat="50.532423472031951" lon="6.20183352380991">
        <ele>518.54999999999995</ele>
        <time>2019-04-26T11:19:39Z</time>
      </trkpt>
      <trkpt lat="50.532335797324777" lon="6.201649624854326">
        <ele>518.55999999999995</ele>
        <time>2019-04-26T11:19:54Z</time>
      </trkpt>
      <trkpt lat="50.532336384057999" lon="6.201633531600237">
        <ele>518.59000000000003</ele>
        <time>2019-04-26T11:19:58Z</time>
      </trkpt>
      <trkpt lat="50.532366642728448" lon="6.201573265716434">
        <ele>518.67999999999995</ele>
        <time>2019-04-26T11:20:28Z</time>
      </trkpt>
      <trkpt lat="50.532344849780202" lon="6.201535882428289">
        <ele>518.67999999999995</ele>
        <time>2019-04-26T11:20:32Z</time>
      </trkpt>
      <trkpt lat="50.532233705744147" lon="6.20134393684566">
        <ele>517.84000000000003</ele>
        <time>2019-04-26T11:20:48Z</time>
      </trkpt>
      <trkpt lat="50.532125243917108" lon="6.201167246326804">
        <ele>517.07000000000005</ele>
        <time>2019-04-26T11:21:02Z</time>
      </trkpt>
      <trkpt lat="50.531981494277716" lon="6.200906066223979">
        <ele>514.40999999999997</ele>
        <time>2019-04-26T11:21:20Z</time>
      </trkpt>
      <trkpt lat="50.53185467608273" lon="6.200639773160219">
        <ele>511.93000000000001</ele>
        <time>2019-04-26T11:21:37Z</time>
      </trkpt>
      <trkpt lat="50.531725594773889" lon="6.200418490916491">
        <ele>510.18000000000001</ele>
        <time>2019-04-26T11:21:52Z</time>
      </trkpt>
      <trkpt lat="50.531592071056366" lon="6.200312711298466">
        <ele>510.19</ele>
        <time>2019-04-26T11:22:02Z</time>
      </trkpt>
      <trkpt lat="50.531485620886087" lon="6.200252361595631">
        <ele>509.42000000000002</ele>
        <time>2019-04-26T11:22:10Z</time>
      </trkpt>
      <trkpt lat="50.53131471388042" lon="6.200136942788959">
        <ele>507.50999999999999</ele>
        <time>2019-04-26T11:22:25Z</time>
      </trkpt>
      <trkpt lat="50.531085636466742" lon="6.20002755895257">
        <ele>504.75</ele>
        <time>2019-04-26T11:22:43Z</time>
      </trkpt>
      <trkpt lat="50.530899809673429" lon="6.199971400201321">
        <ele>503.10000000000002</ele>
        <time>2019-04-26T11:23:00Z</time>
      </trkpt>
      <trkpt lat="50.53060476668179" lon="6.199871990829706">
        <ele>500.43000000000001</ele>
        <time>2019-04-26T11:23:22Z</time>
      </trkpt>
      <trkpt lat="50.530471159145236" lon="6.199834691360593">
        <ele>499.60000000000002</ele>
        <time>2019-04-26T11:23:32Z</time>
      </trkpt>
      <trkpt lat="50.530376695096493" lon="6.199843743816018">
        <ele>498.66000000000003</ele>
        <time>2019-04-26T11:23:39Z</time>
      </trkpt>
      <trkpt lat="50.530211739242077" lon="6.199828991666436">
        <ele>496.79000000000002</ele>
        <time>2019-04-26T11:23:52Z</time>
      </trkpt>
      <trkpt lat="50.530064301565289" lon="6.199876014143229">
        <ele>495.75</ele>
        <time>2019-04-26T11:24:05Z</time>
      </trkpt>
      <trkpt lat="50.52997930906713" lon="6.19992152787745">
        <ele>494.73000000000002</ele>
        <time>2019-04-26T11:24:11Z</time>
      </trkpt>
      <trkpt lat="50.529848216101527" lon="6.200024792924523">
        <ele>492.95999999999998</ele>
        <time>2019-04-26T11:24:23Z</time>
      </trkpt>
      <trkpt lat="50.529710585251451" lon="6.200083969160914">
        <ele>491.06</ele>
        <time>2019-04-26T11:24:37Z</time>
      </trkpt>
      <trkpt lat="50.529468599706888" lon="6.200321512296796">
        <ele>488.75</ele>
        <time>2019-04-26T11:24:57Z</time>
      </trkpt>
      <trkpt lat="50.529264584183693" lon="6.200585374608636">
        <ele>485.5</ele>
        <time>2019-04-26T11:25:17Z</time>
      </trkpt>
      <trkpt lat="50.529163330793381" lon="6.200754186138511">
        <ele>483.5</ele>
        <time>2019-04-26T11:25:31Z</time>
      </trkpt>
      <trkpt lat="50.529075236991048" lon="6.201066495850682">
        <ele>481.61000000000001</ele>
        <time>2019-04-26T11:25:49Z</time>
      </trkpt>
      <trkpt lat="50.529008265584707" lon="6.201322814449668">
        <ele>479.77999999999997</ele>
        <time>2019-04-26T11:26:01Z</time>
      </trkpt>
      <trkpt lat="50.528977671638131" lon="6.201445693150163">
        <ele>478.94999999999999</ele>
        <time>2019-04-26T11:26:07Z</time>
      </trkpt>
      <trkpt lat="50.528935175389051" lon="6.201559016481042">
        <ele>478.06999999999999</ele>
        <time>2019-04-26T11:26:13Z</time>
      </trkpt>
      <trkpt lat="50.528854709118605" lon="6.201824387535453">
        <ele>477.11000000000001</ele>
        <time>2019-04-26T11:26:26Z</time>
      </trkpt>
      <trkpt lat="50.528726801276207" lon="6.202064780518413">
        <ele>476.18000000000001</ele>
        <time>2019-04-26T11:26:41Z</time>
      </trkpt>
      <trkpt lat="50.52873719483614" lon="6.202025888487697">
        <ele>476.13</ele>
        <time>2019-04-26T11:26:45Z</time>
      </trkpt>
      <trkpt lat="50.528789162635803" lon="6.201737802475691">
        <ele>475.23000000000002</ele>
        <time>2019-04-26T11:27:00Z</time>
      </trkpt>
      <trkpt lat="50.528801316395402" lon="6.201612493023276">
        <ele>475.18000000000001</ele>
        <time>2019-04-26T11:27:05Z</time>
      </trkpt>
      <trkpt lat="50.528826545923948" lon="6.201462708413601">
        <ele>475.12</ele>
        <time>2019-04-26T11:27:12Z</time>
      </trkpt>
      <trkpt lat="50.528836101293564" lon="6.201379643753171">
        <ele>475.08999999999997</ele>
        <time>2019-04-26T11:27:16Z</time>
      </trkpt>
      <trkpt lat="50.528861414641142" lon="6.201275624334812">
        <ele>474.25999999999999</ele>
        <time>2019-04-26T11:27:22Z</time>
      </trkpt>
      <trkpt lat="50.528879016637802" lon="6.201134221628308">
        <ele>474.19999999999999</ele>
        <time>2019-04-26T11:27:28Z</time>
      </trkpt>
      <trkpt lat="50.52888622507453" lon="6.200792072340846">
        <ele>474.06</ele>
        <time>2019-04-26T11:27:43Z</time>
      </trkpt>
      <trkpt lat="50.528892762959003" lon="6.200716132298112">
        <ele>474.02999999999997</ele>
        <time>2019-04-26T11:27:47Z</time>
      </trkpt>
      <trkpt lat="50.528908940032125" lon="6.200633570551872">
        <ele>473.22000000000003</ele>
        <time>2019-04-26T11:27:52Z</time>
      </trkpt>
      <trkpt lat="50.528933331370354" lon="6.200539190322161">
        <ele>473.19999999999999</ele>
        <time>2019-04-26T11:27:57Z</time>
      </trkpt>
      <trkpt lat="50.52900793030858" lon="6.20033198967576">
        <ele>473.10000000000002</ele>
        <time>2019-04-26T11:28:10Z</time>
      </trkpt>
      <trkpt lat="50.529059311375022" lon="6.20019611902535">
        <ele>473.02999999999997</ele>
        <time>2019-04-26T11:28:19Z</time>
      </trkpt>
      <trkpt lat="50.529090911149979" lon="6.200115820392966">
        <ele>469.63</ele>
        <time>2019-04-26T11:28:23Z</time>
      </trkpt>
      <trkpt lat="50.529099209234118" lon="6.200096542015672">
        <ele>473.81</ele>
        <time>2019-04-26T11:28:24Z</time>
      </trkpt>
      <trkpt lat="50.529128545895219" lon="6.200027642771602">
        <ele>473.77999999999997</ele>
        <time>2019-04-26T11:28:29Z</time>
      </trkpt>
      <trkpt lat="50.529190823435783" lon="6.199896382167935">
        <ele>473.70999999999998</ele>
        <time>2019-04-26T11:28:42Z</time>
      </trkpt>
      <trkpt lat="50.529171461239457" lon="6.199817759916186">
        <ele>473.69</ele>
        <time>2019-04-26T11:28:47Z</time>
      </trkpt>
      <trkpt lat="50.529031315818429" lon="6.199478711932898">
        <ele>469.44</ele>
        <time>2019-04-26T11:29:07Z</time>
      </trkpt>
      <trkpt lat="50.528894858434796" lon="6.199425989761949">
        <ele>469.44999999999999</ele>
        <time>2019-04-26T11:29:17Z</time>
      </trkpt>
      <trkpt lat="50.528777176514268" lon="6.199475778266788">
        <ele>468.64999999999998</ele>
        <time>2019-04-26T11:29:31Z</time>
      </trkpt>
      <trkpt lat="50.528747420758009" lon="6.199463121592999">
        <ele>468.69999999999999</ele>
        <time>2019-04-26T11:29:53Z</time>
      </trkpt>
      <trkpt lat="50.528705846518278" lon="6.199507294222713">
        <ele>467.94999999999999</ele>
        <time>2019-04-26T11:30:09Z</time>
      </trkpt>
      <trkpt lat="50.528694111853838" lon="6.199549958109856">
        <ele>467.95999999999998</ele>
        <time>2019-04-26T11:30:13Z</time>
      </trkpt>
      <trkpt lat="50.528669720515609" lon="6.1996547318995">
        <ele>468.05000000000001</ele>
        <time>2019-04-26T11:30:31Z</time>
      </trkpt>
      <trkpt lat="50.528619596734643" lon="6.199794793501496">
        <ele>468.19</ele>
        <time>2019-04-26T11:30:57Z</time>
      </trkpt>
      <trkpt lat="50.528551451861858" lon="6.200091261416674">
        <ele>468.29000000000002</ele>
        <time>2019-04-26T11:31:13Z</time>
      </trkpt>
      <trkpt lat="50.528458580374718" lon="6.200369540601969">
        <ele>468.38</ele>
        <time>2019-04-26T11:31:29Z</time>
      </trkpt>
      <trkpt lat="50.528342574834824" lon="6.200587553903461">
        <ele>468.44999999999999</ele>
        <time>2019-04-26T11:31:42Z</time>
      </trkpt>
      <trkpt lat="50.528291780501604" lon="6.200624015182257">
        <ele>470.83999999999997</ele>
        <time>2019-04-26T11:31:46Z</time>
      </trkpt>
      <trkpt lat="50.528281638398767" lon="6.200629128143191">
        <ele>473.94</ele>
        <time>2019-04-26T11:31:47Z</time>
      </trkpt>
      <trkpt lat="50.52827007137239" lon="6.200638599693775">
        <ele>473.94999999999999</ele>
        <time>2019-04-26T11:31:48Z</time>
      </trkpt>
      <trkpt lat="50.52825691178441" lon="6.200649831444025">
        <ele>470.69999999999999</ele>
        <time>2019-04-26T11:31:49Z</time>
      </trkpt>
      <trkpt lat="50.528243752196431" lon="6.200658632442355">
        <ele>470.69999999999999</ele>
        <time>2019-04-26T11:31:50Z</time>
      </trkpt>
      <trkpt lat="50.528159765526652" lon="6.200714958831668">
        <ele>470.74000000000001</ele>
        <time>2019-04-26T11:32:05Z</time>
      </trkpt>
      <trkpt lat="50.528078461065888" lon="6.200745552778244">
        <ele>470.79000000000002</ele>
        <time>2019-04-26T11:32:24Z</time>
      </trkpt>
      <trkpt lat="50.527841001749039" lon="6.200897684320808">
        <ele>470.87</ele>
        <time>2019-04-26T11:32:42Z</time>
      </trkpt>
      <trkpt lat="50.527620138600469" lon="6.201020311564207">
        <ele>471</ele>
        <time>2019-04-26T11:32:59Z</time>
      </trkpt>
      <trkpt lat="50.527395838871598" lon="6.20102726854384">
        <ele>470.99000000000001</ele>
        <time>2019-04-26T11:33:15Z</time>
      </trkpt>
      <trkpt lat="50.527206994593143" lon="6.200864324346185">
        <ele>473.44999999999999</ele>
        <time>2019-04-26T11:33:31Z</time>
      </trkpt>
      <trkpt lat="50.527112865820527" lon="6.200802717357874">
        <ele>475.45999999999998</ele>
        <time>2019-04-26T11:33:39Z</time>
      </trkpt>
      <trkpt lat="50.526939611881971" lon="6.200913526117802">
        <ele>477.44999999999999</ele>
        <time>2019-04-26T11:33:53Z</time>
      </trkpt>
      <trkpt lat="50.526897786185145" lon="6.200927859172225">
        <ele>477.47000000000003</ele>
        <time>2019-04-26T11:33:57Z</time>
      </trkpt>
      <trkpt lat="50.526731656864285" lon="6.200775476172566">
        <ele>480.04000000000002</ele>
        <time>2019-04-26T11:34:27Z</time>
      </trkpt>
      <trkpt lat="50.526655716821551" lon="6.200357470661402">
        <ele>485.35000000000002</ele>
        <time>2019-04-26T11:34:55Z</time>
      </trkpt>
      <trkpt lat="50.526758059859276" lon="6.200325200334191">
        <ele>484.47000000000003</ele>
        <time>2019-04-26T11:36:41Z</time>
      </trkpt>
      <trkpt lat="50.526836765930057" lon="6.200189916417003">
        <ele>486.81999999999999</ele>
        <time>2019-04-26T11:36:51Z</time>
      </trkpt>
      <trkpt lat="50.526850847527385" lon="6.199984475970268">
        <ele>490.31</ele>
        <time>2019-04-26T11:37:09Z</time>
      </trkpt>
      <trkpt lat="50.526714809238911" lon="6.19985313154757">
        <ele>493.05000000000001</ele>
        <time>2019-04-26T11:37:20Z</time>
      </trkpt>
      <trkpt lat="50.526620177552104" lon="6.19973729364574">
        <ele>494.60000000000002</ele>
        <time>2019-04-26T11:37:31Z</time>
      </trkpt>
      <trkpt lat="50.526475170627236" lon="6.199572253972292">
        <ele>496.22000000000003</ele>
        <time>2019-04-26T11:37:47Z</time>
      </trkpt>
      <trkpt lat="50.526470225304365" lon="6.199415680021048">
        <ele>499.54000000000002</ele>
        <time>2019-04-26T11:37:59Z</time>
      </trkpt>
      <trkpt lat="50.526465196162462" lon="6.199340661987662">
        <ele>500.27999999999997</ele>
        <time>2019-04-26T11:38:04Z</time>
      </trkpt>
      <trkpt lat="50.526554379612207" lon="6.199111165478826">
        <ele>503.64999999999998</ele>
        <time>2019-04-26T11:38:17Z</time>
      </trkpt>
      <trkpt lat="50.526643143966794" lon="6.198945455253124">
        <ele>506.26999999999998</ele>
        <time>2019-04-26T11:38:30Z</time>
      </trkpt>
      <trkpt lat="50.526715647429228" lon="6.19886658154428">
        <ele>506</ele>
        <time>2019-04-26T11:38:40Z</time>
      </trkpt>
      <trkpt lat="50.526993423700333" lon="6.198558714240789">
        <ele>512.36000000000001</ele>
        <time>2019-04-26T11:39:15Z</time>
      </trkpt>
      <trkpt lat="50.527191068977118" lon="6.198278926312923">
        <ele>514.40999999999997</ele>
        <time>2019-04-26T11:39:36Z</time>
      </trkpt>
      <trkpt lat="50.527421487495303" lon="6.197932250797749">
        <ele>515.58000000000004</ele>
        <time>2019-04-26T11:39:58Z</time>
      </trkpt>
      <trkpt lat="50.527593400329351" lon="6.197663610801101">
        <ele>518.74000000000001</ele>
        <time>2019-04-26T11:40:20Z</time>
      </trkpt>
      <trkpt lat="50.527627682313323" lon="6.19751893915236">
        <ele>519.60000000000002</ele>
        <time>2019-04-26T11:40:26Z</time>
      </trkpt>
      <trkpt lat="50.527658695355058" lon="6.197341997176409">
        <ele>526.58000000000004</ele>
        <time>2019-04-26T11:40:33Z</time>
      </trkpt>
      <trkpt lat="50.527664143592119" lon="6.197323892265558">
        <ele>523.69000000000005</ele>
        <time>2019-04-26T11:40:34Z</time>
      </trkpt>
      <trkpt lat="50.527665317058563" lon="6.197300171479583">
        <ele>521.91999999999996</ele>
        <time>2019-04-26T11:40:35Z</time>
      </trkpt>
      <trkpt lat="50.527746453881264" lon="6.197030860930681">
        <ele>521.63</ele>
        <time>2019-04-26T11:40:49Z</time>
      </trkpt>
      <trkpt lat="50.527744693681598" lon="6.196997249498963">
        <ele>521.75</ele>
        <time>2019-04-26T11:40:50Z</time>
      </trkpt>
      <trkpt lat="50.52775701507926" lon="6.196948299184442">
        <ele>524.01999999999998</ele>
        <time>2019-04-26T11:40:52Z</time>
      </trkpt>
      <trkpt lat="50.527794817462564" lon="6.196830533444881">
        <ele>524.73000000000002</ele>
        <time>2019-04-26T11:41:00Z</time>
      </trkpt>
      <trkpt lat="50.527858771383762" lon="6.196499029174447">
        <ele>524.52999999999997</ele>
        <time>2019-04-26T11:41:14Z</time>
      </trkpt>
      <trkpt lat="50.527862794697285" lon="6.196476230397821">
        <ele>529.17999999999995</ele>
        <time>2019-04-26T11:41:15Z</time>
      </trkpt>
      <trkpt lat="50.5278654769063" lon="6.196451503783464">
        <ele>529.15999999999997</ele>
        <time>2019-04-26T11:41:16Z</time>
      </trkpt>
      <trkpt lat="50.527886096388102" lon="6.19620599783957">
        <ele>529.04999999999995</ele>
        <time>2019-04-26T11:41:29Z</time>
      </trkpt>
      <trkpt lat="50.527811329811811" lon="6.195857143029571">
        <ele>531.97000000000003</ele>
        <time>2019-04-26T11:41:56Z</time>
      </trkpt>
      <trkpt lat="50.527772773057222" lon="6.195814311504364">
        <ele>531.95000000000005</ele>
        <time>2019-04-26T11:42:26Z</time>
      </trkpt>
      <trkpt lat="50.527751231566072" lon="6.195663185790181">
        <ele>532.98000000000002</ele>
        <time>2019-04-26T11:42:42Z</time>
      </trkpt>
      <trkpt lat="50.527618043124676" lon="6.195415332913399">
        <ele>533.03999999999996</ele>
        <time>2019-04-26T11:43:01Z</time>
      </trkpt>
      <trkpt lat="50.527509497478604" lon="6.19516278617084">
        <ele>533.12</ele>
        <time>2019-04-26T11:43:16Z</time>
      </trkpt>
      <trkpt lat="50.527394078671932" lon="6.194917112588882">
        <ele>533.13</ele>
        <time>2019-04-26T11:43:28Z</time>
      </trkpt>
      <trkpt lat="50.527279498055577" lon="6.194723574444652">
        <ele>533.20000000000005</ele>
        <time>2019-04-26T11:43:42Z</time>
      </trkpt>
      <trkpt lat="50.527135245501995" lon="6.194406570866704">
        <ele>533.29999999999995</ele>
        <time>2019-04-26T11:43:59Z</time>
      </trkpt>
      <trkpt lat="50.52701136097312" lon="6.194153353571892">
        <ele>533.38</ele>
        <time>2019-04-26T11:44:15Z</time>
      </trkpt>
      <trkpt lat="50.526892673224211" lon="6.19389577768743">
        <ele>533.46000000000004</ele>
        <time>2019-04-26T11:44:33Z</time>
      </trkpt>
      <trkpt lat="50.526758395135403" lon="6.193572068586946">
        <ele>533.54999999999995</ele>
        <time>2019-04-26T11:44:50Z</time>
      </trkpt>
      <trkpt lat="50.526752779260278" lon="6.193559495732188">
        <ele>533.52999999999997</ele>
        <time>2019-04-26T11:44:51Z</time>
      </trkpt>
      <trkpt lat="50.526688573881984" lon="6.193512808531523">
        <ele>533.52999999999997</ele>
        <time>2019-04-26T11:44:57Z</time>
      </trkpt>
      <trkpt lat="50.526660745963454" lon="6.193503756076098">
        <ele>531.25</ele>
        <time>2019-04-26T11:44:59Z</time>
      </trkpt>
      <trkpt lat="50.526635348796844" lon="6.193488081917167">
        <ele>531.24000000000001</ele>
        <time>2019-04-26T11:45:01Z</time>
      </trkpt>
      <trkpt lat="50.526444995775819" lon="6.193415578454733">
        <ele>530.48000000000002</ele>
        <time>2019-04-26T11:45:17Z</time>
      </trkpt>
      <trkpt lat="50.52619974128902" lon="6.193335866555572">
        <ele>529.67999999999995</ele>
        <time>2019-04-26T11:45:35Z</time>
      </trkpt>
      <trkpt lat="50.525982649996877" lon="6.193359084427357">
        <ele>528.88999999999999</ele>
        <time>2019-04-26T11:45:55Z</time>
      </trkpt>
      <trkpt lat="50.525893801823258" lon="6.193404430523515">
        <ele>528.30999999999995</ele>
        <time>2019-04-26T11:46:15Z</time>
      </trkpt>
      <trkpt lat="50.525812413543463" lon="6.193472491577268">
        <ele>527.72000000000003</ele>
        <time>2019-04-26T11:46:35Z</time>
      </trkpt>
      <trkpt lat="50.525749549269676" lon="6.193496715277433">
        <ele>527.78999999999996</ele>
        <time>2019-04-26T11:46:42Z</time>
      </trkpt>
      <trkpt lat="50.525593897327781" lon="6.193598052486777">
        <ele>527.92999999999995</ele>
        <time>2019-04-26T11:46:59Z</time>
      </trkpt>
      <trkpt lat="50.525413267314434" lon="6.193713471293449">
        <ele>528.04999999999995</ele>
        <time>2019-04-26T11:47:18Z</time>
      </trkpt>
      <trkpt lat="50.52519760094583" lon="6.193788070231676">
        <ele>528.09000000000003</ele>
        <time>2019-04-26T11:47:34Z</time>
      </trkpt>
      <trkpt lat="50.525009343400598" lon="6.193843642249703">
        <ele>528.88999999999999</ele>
        <time>2019-04-26T11:47:49Z</time>
      </trkpt>
      <trkpt lat="50.52494983188808" lon="6.193869709968567">
        <ele>526.36000000000001</ele>
        <time>2019-04-26T11:47:54Z</time>
      </trkpt>
      <trkpt lat="50.524792335927486" lon="6.193973561748862">
        <ele>526.32000000000005</ele>
        <time>2019-04-26T11:48:08Z</time>
      </trkpt>
      <trkpt lat="50.524627296254039" lon="6.194071378558874">
        <ele>526.34000000000003</ele>
        <time>2019-04-26T11:48:20Z</time>
      </trkpt>
      <trkpt lat="50.524557391181588" lon="6.194096440449357">
        <ele>526.37</ele>
        <time>2019-04-26T11:48:26Z</time>
      </trkpt>
      <trkpt lat="50.524496538564563" lon="6.194103229790926">
        <ele>526.38999999999999</ele>
        <time>2019-04-26T11:48:31Z</time>
      </trkpt>
      <trkpt lat="50.524397548288107" lon="6.194309173151851">
        <ele>528.73000000000002</ele>
        <time>2019-04-26T11:48:46Z</time>
      </trkpt>
      <trkpt lat="50.524334264919162" lon="6.194612849503756">
        <ele>528.77999999999997</ele>
        <time>2019-04-26T11:49:01Z</time>
      </trkpt>
      <trkpt lat="50.524290846660733" lon="6.194895152002573">
        <ele>528.77999999999997</ele>
        <time>2019-04-26T11:49:16Z</time>
      </trkpt>
      <trkpt lat="50.524251786991954" lon="6.195154571905732">
        <ele>528.79999999999995</ele>
        <time>2019-04-26T11:49:31Z</time>
      </trkpt>
      <trkpt lat="50.524228066205978" lon="6.195458918809891">
        <ele>528.84000000000003</ele>
        <time>2019-04-26T11:49:49Z</time>
      </trkpt>
      <trkpt lat="50.524182971566916" lon="6.195800062268972">
        <ele>528.87</ele>
        <time>2019-04-26T11:50:03Z</time>
      </trkpt>
      <trkpt lat="50.524166794493794" lon="6.195903075858951">
        <ele>530.71000000000004</ele>
        <time>2019-04-26T11:50:08Z</time>
      </trkpt>
      <trkpt lat="50.524151204153895" lon="6.195981614291668">
        <ele>528.14999999999998</ele>
        <time>2019-04-26T11:50:12Z</time>
      </trkpt>
      <trkpt lat="50.524109043180943" lon="6.196282189339399">
        <ele>528.16999999999996</ele>
        <time>2019-04-26T11:50:27Z</time>
      </trkpt>
      <trkpt lat="50.524072665721178" lon="6.196520905941725">
        <ele>527.38</ele>
        <time>2019-04-26T11:50:43Z</time>
      </trkpt>
      <trkpt lat="50.524035785347223" lon="6.196856517344713">
        <ele>527.48000000000002</ele>
        <time>2019-04-26T11:51:01Z</time>
      </trkpt>
      <trkpt lat="50.524018770083785" lon="6.197040500119329">
        <ele>526.75999999999999</ele>
        <time>2019-04-26T11:51:13Z</time>
      </trkpt>
      <trkpt lat="50.524016171693802" lon="6.197217358276248">
        <ele>526.86000000000001</ele>
        <time>2019-04-26T11:51:28Z</time>
      </trkpt>
      <trkpt lat="50.524009382352233" lon="6.19747300632298">
        <ele>526.10000000000002</ele>
        <time>2019-04-26T11:51:45Z</time>
      </trkpt>
      <trkpt lat="50.523991612717509" lon="6.197625724598765">
        <ele>526.13</ele>
        <time>2019-04-26T11:51:54Z</time>
      </trkpt>
      <trkpt lat="50.523962108418345" lon="6.198015734553337">
        <ele>526.19000000000005</ele>
        <time>2019-04-26T11:52:08Z</time>
      </trkpt>
      <trkpt lat="50.523955738171935" lon="6.198381604626775">
        <ele>525.46000000000004</ele>
        <time>2019-04-26T11:52:21Z</time>
      </trkpt>
      <trkpt lat="50.523949200287461" lon="6.19863348081708">
        <ele>527.62</ele>
        <time>2019-04-26T11:52:32Z</time>
      </trkpt>
      <trkpt lat="50.523944171145558" lon="6.19868335314095">
        <ele>525.03999999999996</ele>
        <time>2019-04-26T11:52:34Z</time>
      </trkpt>
      <trkpt lat="50.523895639926195" lon="6.19906498119235">
        <ele>525.24000000000001</ele>
        <time>2019-04-26T11:52:51Z</time>
      </trkpt>
      <trkpt lat="50.523820705711842" lon="6.199440825730562">
        <ele>523.32000000000005</ele>
        <time>2019-04-26T11:53:08Z</time>
      </trkpt>
      <trkpt lat="50.523743592202663" lon="6.199750453233719">
        <ele>522.57000000000005</ele>
        <time>2019-04-26T11:53:24Z</time>
      </trkpt>
      <trkpt lat="50.523666311055422" lon="6.200095117092133">
        <ele>521.14999999999998</ele>
        <time>2019-04-26T11:53:42Z</time>
      </trkpt>
      <trkpt lat="50.52357972599566" lon="6.200393345206976">
        <ele>519.63</ele>
        <time>2019-04-26T11:53:58Z</time>
      </trkpt>
      <trkpt lat="50.523521387949586" lon="6.200671372935176">
        <ele>518.22000000000003</ele>
        <time>2019-04-26T11:54:18Z</time>
      </trkpt>
      <trkpt lat="50.523558771237731" lon="6.200772374868393">
        <ele>518.35000000000002</ele>
        <time>2019-04-26T11:54:34Z</time>
      </trkpt>
      <trkpt lat="50.523604033514857" lon="6.200804309919477">
        <ele>517.62</ele>
        <time>2019-04-26T11:54:39Z</time>
      </trkpt>
      <trkpt lat="50.523682991042733" lon="6.200831299647689">
        <ele>513.84000000000003</ele>
        <time>2019-04-26T11:54:51Z</time>
      </trkpt>
      <trkpt lat="50.523680476471782" lon="6.200827024877071">
        <ele>518.63999999999999</ele>
        <time>2019-04-26T11:54:52Z</time>
      </trkpt>
      <trkpt lat="50.523680225014687" lon="6.200826354324818">
        <ele>518.64999999999998</ele>
        <time>2019-04-26T11:54:53Z</time>
      </trkpt>
      <trkpt lat="50.52370629273355" lon="6.200877400115132">
        <ele>516.38</ele>
        <time>2019-04-26T11:55:07Z</time>
      </trkpt>
      <trkpt lat="50.52384601905942" lon="6.201020646840334">
        <ele>515.88999999999999</ele>
        <time>2019-04-26T11:55:27Z</time>
      </trkpt>
      <trkpt lat="50.52383185364306" lon="6.20103950612247">
        <ele>515.38</ele>
        <time>2019-04-26T11:55:49Z</time>
      </trkpt>
      <trkpt lat="50.523834619671106" lon="6.20098527520895">
        <ele>515.55999999999995</ele>
        <time>2019-04-26T11:56:05Z</time>
      </trkpt>
      <trkpt lat="50.523858843371272" lon="6.200953172519803">
        <ele>515.73000000000002</ele>
        <time>2019-04-26T11:56:21Z</time>
      </trkpt>
      <trkpt lat="50.523864207789302" lon="6.200946550816298">
        <ele>501.37</ele>
        <time>2019-04-26T11:56:28Z</time>
      </trkpt>
    </trkseg>
  </trk>

</gpx>